<?xml version="1.0" encoding="UTF-8" standalone="no" ?>
<gpx xmlns="http://www.topografix.com/GPX/1/1" xmlns:xsi="http://www.w3.org/2001/XMLSchema-instance" xsi:schemaLocation="http://www.topografix.com/GPX/1/1 http://www.topografix.com/GPX/1/1/gpx.xsd" version="1.1" creator="VisuGPX - https://www.visugpx.com">
  <metadata>
    <name>20150728 - Usciolu Verde</name>
    <desc><![CDATA[refuge d'Usciolu / col de Verde, GR20 et variantes

GR20SUD201507]]></desc>
  </metadata>
  <trk>
    <name><![CDATA[2015-07-27 06:51]]></name>
    <desc><![CDATA[<h1>OruxMaps</h1><br /><hr align="center" width="480" style="height: 2px; width: 517px"/><h2>Nom: 2015-07-27 06:51</h2><br /><p>Temps de départ: 07/28/2015 06:03</p><p>Temps d'arrivée: 07/28/2015 17:44</p><p>Distance: 15,4km (11:40)</p><p>Temps déplacement: 05:47</p><p>Vitesse moyenne: 1,3km/h</p><p>Vitesse moyenne: 2,7km/h</p><p>Vitess Max.: 7,8km/h</p><p>Altitude minimale: 1274m</p><p>Altitude maximale: 2038m</p><p>Vitesse d'élévation: 316m/h</p><p>Vitesse de descente: -250,8m/h</p><p>Gain Altitude: 1267m</p><p>Perte Altitude: -1807m</p><p>Temps d'élévation: 04:00</p><p>Temps de descente: 07:12</p><hr align="center" width="480" style="height: 2px; width: 517px"/>]]></desc>
    <trkseg>
      <trkpt lat="41.93525" lon="9.20606">
        <ele>1700.47</ele>
        <time>2015-07-28T04:03:38Z</time>
      </trkpt>
      <trkpt lat="41.93525" lon="9.2058">
        <ele>1755.43</ele>
        <time>2015-07-28T04:03:47Z</time>
      </trkpt>
      <trkpt lat="41.93518" lon="9.20603">
        <ele>1737.59</ele>
        <time>2015-07-28T04:08:52Z</time>
      </trkpt>
      <trkpt lat="41.93523" lon="9.20627">
        <ele>1733.75</ele>
        <time>2015-07-28T04:09:28Z</time>
      </trkpt>
      <trkpt lat="41.93532" lon="9.20647">
        <ele>1746.22</ele>
        <time>2015-07-28T04:10:13Z</time>
      </trkpt>
      <trkpt lat="41.93542" lon="9.20669">
        <ele>1751.2</ele>
        <time>2015-07-28T04:11:01Z</time>
      </trkpt>
      <trkpt lat="41.93548" lon="9.20691">
        <ele>1756.95</ele>
        <time>2015-07-28T04:11:48Z</time>
      </trkpt>
      <trkpt lat="41.93565" lon="9.207">
        <ele>1763.26</ele>
        <time>2015-07-28T04:13:18Z</time>
      </trkpt>
      <trkpt lat="41.93584" lon="9.207">
        <ele>1773.45</ele>
        <time>2015-07-28T04:14:43Z</time>
      </trkpt>
      <trkpt lat="41.93603" lon="9.20704">
        <ele>1774.22</ele>
        <time>2015-07-28T04:15:41Z</time>
      </trkpt>
      <trkpt lat="41.93608" lon="9.20727">
        <ele>1789.72</ele>
        <time>2015-07-28T04:17:05Z</time>
      </trkpt>
      <trkpt lat="41.93617" lon="9.20749">
        <ele>1786.87</ele>
        <time>2015-07-28T04:18:14Z</time>
      </trkpt>
      <trkpt lat="41.93629" lon="9.20767">
        <ele>1795.29</ele>
        <time>2015-07-28T04:18:58Z</time>
      </trkpt>
      <trkpt lat="41.93642" lon="9.20784">
        <ele>1798.96</ele>
        <time>2015-07-28T04:20:02Z</time>
      </trkpt>
      <trkpt lat="41.93653" lon="9.20804">
        <ele>1801.88</ele>
        <time>2015-07-28T04:21:03Z</time>
      </trkpt>
      <trkpt lat="41.93661" lon="9.20826">
        <ele>1808.91</ele>
        <time>2015-07-28T04:21:40Z</time>
      </trkpt>
      <trkpt lat="41.93663" lon="9.20851">
        <ele>1819</ele>
        <time>2015-07-28T04:22:15Z</time>
      </trkpt>
      <trkpt lat="41.93666" lon="9.20875">
        <ele>1814.48</ele>
        <time>2015-07-28T04:23:07Z</time>
      </trkpt>
      <trkpt lat="41.93663" lon="9.209">
        <ele>1815.02</ele>
        <time>2015-07-28T04:23:24Z</time>
      </trkpt>
      <trkpt lat="41.93658" lon="9.20923">
        <ele>1830.88</ele>
        <time>2015-07-28T04:23:55Z</time>
      </trkpt>
      <trkpt lat="41.93668" lon="9.20944">
        <ele>1837.7</ele>
        <time>2015-07-28T04:24:34Z</time>
      </trkpt>
      <trkpt lat="41.93674" lon="9.20968">
        <ele>1838.41</ele>
        <time>2015-07-28T04:25:22Z</time>
      </trkpt>
      <trkpt lat="41.9368" lon="9.20991">
        <ele>1840.27</ele>
        <time>2015-07-28T04:25:53Z</time>
      </trkpt>
      <trkpt lat="41.93685" lon="9.21015">
        <ele>1843.89</ele>
        <time>2015-07-28T04:26:25Z</time>
      </trkpt>
      <trkpt lat="41.93695" lon="9.21035">
        <ele>1848.47</ele>
        <time>2015-07-28T04:27:25Z</time>
      </trkpt>
      <trkpt lat="41.93712" lon="9.21046">
        <ele>1847.95</ele>
        <time>2015-07-28T04:27:52Z</time>
      </trkpt>
      <trkpt lat="41.93715" lon="9.2107">
        <ele>1865.31</ele>
        <time>2015-07-28T04:28:29Z</time>
      </trkpt>
      <trkpt lat="41.93719" lon="9.21094">
        <ele>1874.25</ele>
        <time>2015-07-28T04:29:14Z</time>
      </trkpt>
      <trkpt lat="41.93724" lon="9.21118">
        <ele>1870.84</ele>
        <time>2015-07-28T04:29:42Z</time>
      </trkpt>
      <trkpt lat="41.9372" lon="9.21142">
        <ele>1869.21</ele>
        <time>2015-07-28T04:30:01Z</time>
      </trkpt>
      <trkpt lat="41.93717" lon="9.21166">
        <ele>1876.24</ele>
        <time>2015-07-28T04:30:51Z</time>
      </trkpt>
      <trkpt lat="41.93729" lon="9.21184">
        <ele>1881.2</ele>
        <time>2015-07-28T04:31:19Z</time>
      </trkpt>
      <trkpt lat="41.93739" lon="9.21205">
        <ele>1869.57</ele>
        <time>2015-07-28T04:32:19Z</time>
      </trkpt>
      <trkpt lat="41.93748" lon="9.21228">
        <ele>1871.38</ele>
        <time>2015-07-28T04:32:37Z</time>
      </trkpt>
      <trkpt lat="41.93752" lon="9.21252">
        <ele>1871.38</ele>
        <time>2015-07-28T04:33:08Z</time>
      </trkpt>
      <trkpt lat="41.93762" lon="9.21273">
        <ele>1865.43</ele>
        <time>2015-07-28T04:34:37Z</time>
      </trkpt>
      <trkpt lat="41.93773" lon="9.21293">
        <ele>1866.43</ele>
        <time>2015-07-28T04:35:08Z</time>
      </trkpt>
      <trkpt lat="41.93788" lon="9.21307">
        <ele>1870.16</ele>
        <time>2015-07-28T04:35:30Z</time>
      </trkpt>
      <trkpt lat="41.93795" lon="9.2133">
        <ele>1860.81</ele>
        <time>2015-07-28T04:36:29Z</time>
      </trkpt>
      <trkpt lat="41.93801" lon="9.21353">
        <ele>1853.76</ele>
        <time>2015-07-28T04:37:34Z</time>
      </trkpt>
      <trkpt lat="41.93802" lon="9.21378">
        <ele>1860.99</ele>
        <time>2015-07-28T04:38:27Z</time>
      </trkpt>
      <trkpt lat="41.93804" lon="9.21402">
        <ele>1860.34</ele>
        <time>2015-07-28T04:39:07Z</time>
      </trkpt>
      <trkpt lat="41.93809" lon="9.21425">
        <ele>1857.12</ele>
        <time>2015-07-28T04:39:44Z</time>
      </trkpt>
      <trkpt lat="41.93808" lon="9.2145">
        <ele>1846.61</ele>
        <time>2015-07-28T04:40:33Z</time>
      </trkpt>
      <trkpt lat="41.93808" lon="9.21474">
        <ele>1839.97</ele>
        <time>2015-07-28T04:41:20Z</time>
      </trkpt>
      <trkpt lat="41.93808" lon="9.21499">
        <ele>1837.58</ele>
        <time>2015-07-28T04:41:59Z</time>
      </trkpt>
      <trkpt lat="41.93798" lon="9.21519">
        <ele>1828.46</ele>
        <time>2015-07-28T04:42:55Z</time>
      </trkpt>
      <trkpt lat="41.93796" lon="9.21544">
        <ele>1822.5</ele>
        <time>2015-07-28T04:43:28Z</time>
      </trkpt>
      <trkpt lat="41.93812" lon="9.21556">
        <ele>1823.56</ele>
        <time>2015-07-28T04:44:10Z</time>
      </trkpt>
      <trkpt lat="41.93825" lon="9.21572">
        <ele>1822.25</ele>
        <time>2015-07-28T04:44:51Z</time>
      </trkpt>
      <trkpt lat="41.93841" lon="9.21585">
        <ele>1820.23</ele>
        <time>2015-07-28T04:45:19Z</time>
      </trkpt>
      <trkpt lat="41.93859" lon="9.2159">
        <ele>1819.41</ele>
        <time>2015-07-28T04:45:51Z</time>
      </trkpt>
      <trkpt lat="41.93877" lon="9.21585">
        <ele>1824.75</ele>
        <time>2015-07-28T04:46:56Z</time>
      </trkpt>
      <trkpt lat="41.93895" lon="9.21585">
        <ele>1832.47</ele>
        <time>2015-07-28T04:47:39Z</time>
      </trkpt>
      <trkpt lat="41.93911" lon="9.21597">
        <ele>1840.83</ele>
        <time>2015-07-28T04:48:17Z</time>
      </trkpt>
      <trkpt lat="41.93928" lon="9.21608">
        <ele>1844.54</ele>
        <time>2015-07-28T04:48:55Z</time>
      </trkpt>
      <trkpt lat="41.93945" lon="9.21615">
        <ele>1845.53</ele>
        <time>2015-07-28T04:49:49Z</time>
      </trkpt>
      <trkpt lat="41.93963" lon="9.21622">
        <ele>1848.41</ele>
        <time>2015-07-28T04:50:07Z</time>
      </trkpt>
      <trkpt lat="41.93981" lon="9.2163">
        <ele>1852.85</ele>
        <time>2015-07-28T04:50:41Z</time>
      </trkpt>
      <trkpt lat="41.93998" lon="9.21637">
        <ele>1855</ele>
        <time>2015-07-28T04:51:28Z</time>
      </trkpt>
      <trkpt lat="41.94011" lon="9.21619">
        <ele>1862.22</ele>
        <time>2015-07-28T04:52:46Z</time>
      </trkpt>
      <trkpt lat="41.9402" lon="9.21598">
        <ele>1863.56</ele>
        <time>2015-07-28T04:53:26Z</time>
      </trkpt>
      <trkpt lat="41.94033" lon="9.2158">
        <ele>1877.03</ele>
        <time>2015-07-28T04:54:31Z</time>
      </trkpt>
      <trkpt lat="41.94042" lon="9.21559">
        <ele>1887.59</ele>
        <time>2015-07-28T04:55:54Z</time>
      </trkpt>
      <trkpt lat="41.94057" lon="9.21546">
        <ele>1887.39</ele>
        <time>2015-07-28T04:56:56Z</time>
      </trkpt>
      <trkpt lat="41.94075" lon="9.21554">
        <ele>1898.41</ele>
        <time>2015-07-28T04:57:26Z</time>
      </trkpt>
      <trkpt lat="41.94089" lon="9.21568">
        <ele>1902.47</ele>
        <time>2015-07-28T04:58:19Z</time>
      </trkpt>
      <trkpt lat="41.94104" lon="9.21584">
        <ele>1905.49</ele>
        <time>2015-07-28T04:59:09Z</time>
      </trkpt>
      <trkpt lat="41.94111" lon="9.21606">
        <ele>1907.1</ele>
        <time>2015-07-28T04:59:34Z</time>
      </trkpt>
      <trkpt lat="41.94119" lon="9.21628">
        <ele>1906.01</ele>
        <time>2015-07-28T05:00:03Z</time>
      </trkpt>
      <trkpt lat="41.94126" lon="9.21651">
        <ele>1905.99</ele>
        <time>2015-07-28T05:00:34Z</time>
      </trkpt>
      <trkpt lat="41.94134" lon="9.21673">
        <ele>1901.22</ele>
        <time>2015-07-28T05:02:31Z</time>
      </trkpt>
      <trkpt lat="41.94146" lon="9.21692">
        <ele>1894.36</ele>
        <time>2015-07-28T05:06:53Z</time>
      </trkpt>
      <trkpt lat="41.9416" lon="9.21708">
        <ele>1892.1</ele>
        <time>2015-07-28T05:07:21Z</time>
      </trkpt>
      <trkpt lat="41.94177" lon="9.21718">
        <ele>1897.2</ele>
        <time>2015-07-28T05:07:44Z</time>
      </trkpt>
      <trkpt lat="41.94192" lon="9.2173">
        <ele>1895.96</ele>
        <time>2015-07-28T05:08:07Z</time>
      </trkpt>
      <trkpt lat="41.94209" lon="9.21741">
        <ele>1895.79</ele>
        <time>2015-07-28T05:08:36Z</time>
      </trkpt>
      <trkpt lat="41.94225" lon="9.21752">
        <ele>1897.42</ele>
        <time>2015-07-28T05:08:56Z</time>
      </trkpt>
      <trkpt lat="41.94241" lon="9.21763">
        <ele>1892.12</ele>
        <time>2015-07-28T05:09:15Z</time>
      </trkpt>
      <trkpt lat="41.94258" lon="9.21771">
        <ele>1896.21</ele>
        <time>2015-07-28T05:09:51Z</time>
      </trkpt>
      <trkpt lat="41.94276" lon="9.21775">
        <ele>1901.43</ele>
        <time>2015-07-28T05:10:44Z</time>
      </trkpt>
      <trkpt lat="41.94291" lon="9.2179">
        <ele>1904.14</ele>
        <time>2015-07-28T05:11:17Z</time>
      </trkpt>
      <trkpt lat="41.94307" lon="9.21802">
        <ele>1905.84</ele>
        <time>2015-07-28T05:11:48Z</time>
      </trkpt>
      <trkpt lat="41.94324" lon="9.21808">
        <ele>1911.45</ele>
        <time>2015-07-28T05:12:31Z</time>
      </trkpt>
      <trkpt lat="41.94342" lon="9.21813">
        <ele>1916.22</ele>
        <time>2015-07-28T05:13:19Z</time>
      </trkpt>
      <trkpt lat="41.94356" lon="9.21828">
        <ele>1919.12</ele>
        <time>2015-07-28T05:13:37Z</time>
      </trkpt>
      <trkpt lat="41.94366" lon="9.21849">
        <ele>1919.18</ele>
        <time>2015-07-28T05:14:14Z</time>
      </trkpt>
      <trkpt lat="41.94376" lon="9.2187">
        <ele>1927.56</ele>
        <time>2015-07-28T05:15:06Z</time>
      </trkpt>
      <trkpt lat="41.94388" lon="9.21887">
        <ele>1929.99</ele>
        <time>2015-07-28T05:15:54Z</time>
      </trkpt>
      <trkpt lat="41.944" lon="9.21907">
        <ele>1924.75</ele>
        <time>2015-07-28T05:16:31Z</time>
      </trkpt>
      <trkpt lat="41.94412" lon="9.21925">
        <ele>1932.76</ele>
        <time>2015-07-28T05:17:30Z</time>
      </trkpt>
      <trkpt lat="41.94427" lon="9.21939">
        <ele>1931.12</ele>
        <time>2015-07-28T05:18:40Z</time>
      </trkpt>
      <trkpt lat="41.94441" lon="9.21954">
        <ele>1938.21</ele>
        <time>2015-07-28T05:19:07Z</time>
      </trkpt>
      <trkpt lat="41.94454" lon="9.21972">
        <ele>1936.75</ele>
        <time>2015-07-28T05:19:30Z</time>
      </trkpt>
      <trkpt lat="41.94465" lon="9.21992">
        <ele>1938.93</ele>
        <time>2015-07-28T05:20:25Z</time>
      </trkpt>
      <trkpt lat="41.9448" lon="9.22006">
        <ele>1940.22</ele>
        <time>2015-07-28T05:20:49Z</time>
      </trkpt>
      <trkpt lat="41.94497" lon="9.22016">
        <ele>1939.47</ele>
        <time>2015-07-28T05:21:36Z</time>
      </trkpt>
      <trkpt lat="41.94513" lon="9.22027">
        <ele>1944.6</ele>
        <time>2015-07-28T05:22:14Z</time>
      </trkpt>
      <trkpt lat="41.94531" lon="9.22029">
        <ele>1945.92</ele>
        <time>2015-07-28T05:22:58Z</time>
      </trkpt>
      <trkpt lat="41.94549" lon="9.22036">
        <ele>1950.74</ele>
        <time>2015-07-28T05:23:37Z</time>
      </trkpt>
      <trkpt lat="41.94567" lon="9.22037">
        <ele>1951.42</ele>
        <time>2015-07-28T05:23:58Z</time>
      </trkpt>
      <trkpt lat="41.94585" lon="9.22032">
        <ele>1913.32</ele>
        <time>2015-07-28T05:24:15Z</time>
      </trkpt>
      <trkpt lat="41.94603" lon="9.22028">
        <ele>1915.2</ele>
        <time>2015-07-28T05:24:34Z</time>
      </trkpt>
      <trkpt lat="41.94621" lon="9.22022">
        <ele>1939.46</ele>
        <time>2015-07-28T05:25:09Z</time>
      </trkpt>
      <trkpt lat="41.94639" lon="9.22029">
        <ele>1937.41</ele>
        <time>2015-07-28T05:25:50Z</time>
      </trkpt>
      <trkpt lat="41.9465" lon="9.22049">
        <ele>1933.56</ele>
        <time>2015-07-28T05:26:30Z</time>
      </trkpt>
      <trkpt lat="41.94666" lon="9.22063">
        <ele>1927.76</ele>
        <time>2015-07-28T05:26:50Z</time>
      </trkpt>
      <trkpt lat="41.94676" lon="9.22084">
        <ele>1929.46</ele>
        <time>2015-07-28T05:27:10Z</time>
      </trkpt>
      <trkpt lat="41.94686" lon="9.22105">
        <ele>1930.53</ele>
        <time>2015-07-28T05:27:26Z</time>
      </trkpt>
      <trkpt lat="41.94701" lon="9.2212">
        <ele>1933.72</ele>
        <time>2015-07-28T05:27:50Z</time>
      </trkpt>
      <trkpt lat="41.94715" lon="9.22138">
        <ele>1932.46</ele>
        <time>2015-07-28T05:28:09Z</time>
      </trkpt>
      <trkpt lat="41.94733" lon="9.22141">
        <ele>1930.23</ele>
        <time>2015-07-28T05:28:29Z</time>
      </trkpt>
      <trkpt lat="41.94751" lon="9.22144">
        <ele>1932.11</ele>
        <time>2015-07-28T05:29:52Z</time>
      </trkpt>
      <trkpt lat="41.94768" lon="9.22155">
        <ele>1935.93</ele>
        <time>2015-07-28T05:30:42Z</time>
      </trkpt>
      <trkpt lat="41.94785" lon="9.22164">
        <ele>1928.91</ele>
        <time>2015-07-28T05:31:44Z</time>
      </trkpt>
      <trkpt lat="41.94799" lon="9.2218">
        <ele>1926.97</ele>
        <time>2015-07-28T05:32:22Z</time>
      </trkpt>
      <trkpt lat="41.94813" lon="9.22198">
        <ele>1924.83</ele>
        <time>2015-07-28T05:32:43Z</time>
      </trkpt>
      <trkpt lat="41.94826" lon="9.22216">
        <ele>1919.98</ele>
        <time>2015-07-28T05:32:59Z</time>
      </trkpt>
      <trkpt lat="41.9484" lon="9.22232">
        <ele>1923.15</ele>
        <time>2015-07-28T05:33:17Z</time>
      </trkpt>
      <trkpt lat="41.94856" lon="9.22242">
        <ele>1921.59</ele>
        <time>2015-07-28T05:33:50Z</time>
      </trkpt>
      <trkpt lat="41.94874" lon="9.22235">
        <ele>1921.97</ele>
        <time>2015-07-28T05:34:20Z</time>
      </trkpt>
      <trkpt lat="41.94892" lon="9.22236">
        <ele>1907.76</ele>
        <time>2015-07-28T05:34:46Z</time>
      </trkpt>
      <trkpt lat="41.9491" lon="9.22232">
        <ele>1928.76</ele>
        <time>2015-07-28T05:35:17Z</time>
      </trkpt>
      <trkpt lat="41.94929" lon="9.22229">
        <ele>1935.71</ele>
        <time>2015-07-28T05:36:01Z</time>
      </trkpt>
      <trkpt lat="41.94948" lon="9.22232">
        <ele>1934.81</ele>
        <time>2015-07-28T05:36:19Z</time>
      </trkpt>
      <trkpt lat="41.94965" lon="9.22238">
        <ele>1935.88</ele>
        <time>2015-07-28T05:36:40Z</time>
      </trkpt>
      <trkpt lat="41.94983" lon="9.22242">
        <ele>1934.03</ele>
        <time>2015-07-28T05:36:59Z</time>
      </trkpt>
      <trkpt lat="41.95001" lon="9.22238">
        <ele>1932.63</ele>
        <time>2015-07-28T05:37:19Z</time>
      </trkpt>
      <trkpt lat="41.95019" lon="9.22238">
        <ele>1934.21</ele>
        <time>2015-07-28T05:37:44Z</time>
      </trkpt>
      <trkpt lat="41.95036" lon="9.22248">
        <ele>1936.24</ele>
        <time>2015-07-28T05:38:12Z</time>
      </trkpt>
      <trkpt lat="41.95055" lon="9.2225">
        <ele>1928.53</ele>
        <time>2015-07-28T05:38:51Z</time>
      </trkpt>
      <trkpt lat="41.95072" lon="9.2226">
        <ele>1928.47</ele>
        <time>2015-07-28T05:39:09Z</time>
      </trkpt>
      <trkpt lat="41.9509" lon="9.22265">
        <ele>1917.98</ele>
        <time>2015-07-28T05:39:28Z</time>
      </trkpt>
      <trkpt lat="41.95107" lon="9.22272">
        <ele>1920</ele>
        <time>2015-07-28T05:43:50Z</time>
      </trkpt>
      <trkpt lat="41.95116" lon="9.22293">
        <ele>1914.48</ele>
        <time>2015-07-28T05:44:35Z</time>
      </trkpt>
      <trkpt lat="41.95131" lon="9.22306">
        <ele>1909.47</ele>
        <time>2015-07-28T05:45:23Z</time>
      </trkpt>
      <trkpt lat="41.95149" lon="9.22297">
        <ele>1898.97</ele>
        <time>2015-07-28T05:46:46Z</time>
      </trkpt>
      <trkpt lat="41.95159" lon="9.22277">
        <ele>1892.72</ele>
        <time>2015-07-28T05:47:48Z</time>
      </trkpt>
      <trkpt lat="41.95173" lon="9.22293">
        <ele>1890.03</ele>
        <time>2015-07-28T05:48:26Z</time>
      </trkpt>
      <trkpt lat="41.9519" lon="9.223">
        <ele>1881.98</ele>
        <time>2015-07-28T05:49:50Z</time>
      </trkpt>
      <trkpt lat="41.95192" lon="9.22276">
        <ele>1868.49</ele>
        <time>2015-07-28T05:51:12Z</time>
      </trkpt>
      <trkpt lat="41.9521" lon="9.22277">
        <ele>1865.49</ele>
        <time>2015-07-28T05:52:35Z</time>
      </trkpt>
      <trkpt lat="41.95225" lon="9.22293">
        <ele>1860.85</ele>
        <time>2015-07-28T05:53:21Z</time>
      </trkpt>
      <trkpt lat="41.95242" lon="9.22301">
        <ele>1851.87</ele>
        <time>2015-07-28T05:54:46Z</time>
      </trkpt>
      <trkpt lat="41.95252" lon="9.22321">
        <ele>1846.98</ele>
        <time>2015-07-28T05:55:40Z</time>
      </trkpt>
      <trkpt lat="41.95271" lon="9.22326">
        <ele>1828.4</ele>
        <time>2015-07-28T05:57:23Z</time>
      </trkpt>
      <trkpt lat="41.95288" lon="9.22328">
        <ele>1816.87</ele>
        <time>2015-07-28T05:58:40Z</time>
      </trkpt>
      <trkpt lat="41.95307" lon="9.22331">
        <ele>1815.16</ele>
        <time>2015-07-28T05:59:27Z</time>
      </trkpt>
      <trkpt lat="41.95325" lon="9.22339">
        <ele>1816.67</ele>
        <time>2015-07-28T06:00:01Z</time>
      </trkpt>
      <trkpt lat="41.95342" lon="9.22345">
        <ele>1808.47</ele>
        <time>2015-07-28T06:01:30Z</time>
      </trkpt>
      <trkpt lat="41.95358" lon="9.22357">
        <ele>1803.57</ele>
        <time>2015-07-28T06:01:48Z</time>
      </trkpt>
      <trkpt lat="41.95374" lon="9.22368">
        <ele>1798.32</ele>
        <time>2015-07-28T06:02:22Z</time>
      </trkpt>
      <trkpt lat="41.95361" lon="9.22385">
        <ele>1792.32</ele>
        <time>2015-07-28T06:03:35Z</time>
      </trkpt>
      <trkpt lat="41.95349" lon="9.22403">
        <ele>1805.46</ele>
        <time>2015-07-28T06:04:26Z</time>
      </trkpt>
      <trkpt lat="41.95366" lon="9.22412">
        <ele>1775.46</ele>
        <time>2015-07-28T06:06:36Z</time>
      </trkpt>
      <trkpt lat="41.9535" lon="9.22424">
        <ele>1769.46</ele>
        <time>2015-07-28T06:07:16Z</time>
      </trkpt>
      <trkpt lat="41.95366" lon="9.22437">
        <ele>1761.17</ele>
        <time>2015-07-28T06:08:37Z</time>
      </trkpt>
      <trkpt lat="41.95349" lon="9.22446">
        <ele>1755.4</ele>
        <time>2015-07-28T06:09:09Z</time>
      </trkpt>
      <trkpt lat="41.95348" lon="9.2247">
        <ele>1747.58</ele>
        <time>2015-07-28T06:11:08Z</time>
      </trkpt>
      <trkpt lat="41.95361" lon="9.22488">
        <ele>1740.57</ele>
        <time>2015-07-28T06:12:44Z</time>
      </trkpt>
      <trkpt lat="41.95373" lon="9.22507">
        <ele>1723.97</ele>
        <time>2015-07-28T06:14:24Z</time>
      </trkpt>
      <trkpt lat="41.95382" lon="9.22528">
        <ele>1711.78</ele>
        <time>2015-07-28T06:16:29Z</time>
      </trkpt>
      <trkpt lat="41.954" lon="9.22533">
        <ele>1696.1</ele>
        <time>2015-07-28T06:17:22Z</time>
      </trkpt>
      <trkpt lat="41.95418" lon="9.22536">
        <ele>1692.91</ele>
        <time>2015-07-28T06:18:07Z</time>
      </trkpt>
      <trkpt lat="41.95433" lon="9.22549">
        <ele>1687.57</ele>
        <time>2015-07-28T06:18:54Z</time>
      </trkpt>
      <trkpt lat="41.95437" lon="9.22573">
        <ele>1677.96</ele>
        <time>2015-07-28T06:20:16Z</time>
      </trkpt>
      <trkpt lat="41.95455" lon="9.22574">
        <ele>1678.29</ele>
        <time>2015-07-28T06:20:55Z</time>
      </trkpt>
      <trkpt lat="41.95472" lon="9.22585">
        <ele>1683.31</ele>
        <time>2015-07-28T06:21:39Z</time>
      </trkpt>
      <trkpt lat="41.95485" lon="9.22602">
        <ele>1677.88</ele>
        <time>2015-07-28T06:21:55Z</time>
      </trkpt>
      <trkpt lat="41.95503" lon="9.226">
        <ele>1667.63</ele>
        <time>2015-07-28T06:48:15Z</time>
      </trkpt>
      <trkpt lat="41.9552" lon="9.22588">
        <ele>1670</ele>
        <time>2015-07-28T06:48:56Z</time>
      </trkpt>
      <trkpt lat="41.95538" lon="9.22585">
        <ele>1674.27</ele>
        <time>2015-07-28T06:49:22Z</time>
      </trkpt>
      <trkpt lat="41.95556" lon="9.22585">
        <ele>1671.74</ele>
        <time>2015-07-28T06:50:33Z</time>
      </trkpt>
      <trkpt lat="41.95573" lon="9.22594">
        <ele>1676.86</ele>
        <time>2015-07-28T06:51:09Z</time>
      </trkpt>
      <trkpt lat="41.95589" lon="9.22607">
        <ele>1682.9</ele>
        <time>2015-07-28T06:51:31Z</time>
      </trkpt>
      <trkpt lat="41.95605" lon="9.22619">
        <ele>1673.76</ele>
        <time>2015-07-28T06:52:10Z</time>
      </trkpt>
      <trkpt lat="41.9562" lon="9.22632">
        <ele>1662.72</ele>
        <time>2015-07-28T06:54:34Z</time>
      </trkpt>
      <trkpt lat="41.95638" lon="9.2263">
        <ele>1660.4</ele>
        <time>2015-07-28T06:56:05Z</time>
      </trkpt>
      <trkpt lat="41.95638" lon="9.22655">
        <ele>1654.82</ele>
        <time>2015-07-28T06:59:42Z</time>
      </trkpt>
      <trkpt lat="41.95648" lon="9.22675">
        <ele>1650.94</ele>
        <time>2015-07-28T07:01:00Z</time>
      </trkpt>
      <trkpt lat="41.95656" lon="9.22654">
        <ele>1649.74</ele>
        <time>2015-07-28T07:01:38Z</time>
      </trkpt>
      <trkpt lat="41.9567" lon="9.22636">
        <ele>1639.15</ele>
        <time>2015-07-28T07:02:35Z</time>
      </trkpt>
      <trkpt lat="41.95684" lon="9.22621">
        <ele>1647.94</ele>
        <time>2015-07-28T07:03:14Z</time>
      </trkpt>
      <trkpt lat="41.957" lon="9.22607">
        <ele>1642.46</ele>
        <time>2015-07-28T07:03:29Z</time>
      </trkpt>
      <trkpt lat="41.95715" lon="9.22593">
        <ele>1634.26</ele>
        <time>2015-07-28T07:03:42Z</time>
      </trkpt>
      <trkpt lat="41.95732" lon="9.22603">
        <ele>1642.07</ele>
        <time>2015-07-28T07:04:34Z</time>
      </trkpt>
      <trkpt lat="41.9575" lon="9.22601">
        <ele>1625.19</ele>
        <time>2015-07-28T07:05:28Z</time>
      </trkpt>
      <trkpt lat="41.95769" lon="9.22592">
        <ele>1615.16</ele>
        <time>2015-07-28T07:06:35Z</time>
      </trkpt>
      <trkpt lat="41.95788" lon="9.2259">
        <ele>1615.79</ele>
        <time>2015-07-28T07:06:47Z</time>
      </trkpt>
      <trkpt lat="41.95805" lon="9.226">
        <ele>1615.05</ele>
        <time>2015-07-28T07:07:05Z</time>
      </trkpt>
      <trkpt lat="41.95823" lon="9.22601">
        <ele>1608.88</ele>
        <time>2015-07-28T07:07:38Z</time>
      </trkpt>
      <trkpt lat="41.95841" lon="9.22603">
        <ele>1614.33</ele>
        <time>2015-07-28T07:07:59Z</time>
      </trkpt>
      <trkpt lat="41.95858" lon="9.22615">
        <ele>1624.54</ele>
        <time>2015-07-28T07:08:51Z</time>
      </trkpt>
      <trkpt lat="41.95876" lon="9.22621">
        <ele>1622</ele>
        <time>2015-07-28T07:09:03Z</time>
      </trkpt>
      <trkpt lat="41.95895" lon="9.22618">
        <ele>1617.82</ele>
        <time>2015-07-28T07:09:13Z</time>
      </trkpt>
      <trkpt lat="41.95913" lon="9.22626">
        <ele>1619.58</ele>
        <time>2015-07-28T07:09:32Z</time>
      </trkpt>
      <trkpt lat="41.95931" lon="9.22621">
        <ele>1610.7</ele>
        <time>2015-07-28T07:10:25Z</time>
      </trkpt>
      <trkpt lat="41.95949" lon="9.2262">
        <ele>1603.06</ele>
        <time>2015-07-28T07:10:41Z</time>
      </trkpt>
      <trkpt lat="41.95968" lon="9.22621">
        <ele>1607.85</ele>
        <time>2015-07-28T07:10:59Z</time>
      </trkpt>
      <trkpt lat="41.95986" lon="9.22616">
        <ele>1609.85</ele>
        <time>2015-07-28T07:12:01Z</time>
      </trkpt>
      <trkpt lat="41.95986" lon="9.2264">
        <ele>1609.03</ele>
        <time>2015-07-28T07:13:17Z</time>
      </trkpt>
      <trkpt lat="41.95984" lon="9.22664">
        <ele>1601.07</ele>
        <time>2015-07-28T07:14:06Z</time>
      </trkpt>
      <trkpt lat="41.96001" lon="9.2267">
        <ele>1596.41</ele>
        <time>2015-07-28T07:15:22Z</time>
      </trkpt>
      <trkpt lat="41.96016" lon="9.22657">
        <ele>1593.59</ele>
        <time>2015-07-28T07:15:48Z</time>
      </trkpt>
      <trkpt lat="41.96032" lon="9.22644">
        <ele>1595.63</ele>
        <time>2015-07-28T07:16:23Z</time>
      </trkpt>
      <trkpt lat="41.96046" lon="9.22628">
        <ele>1600.09</ele>
        <time>2015-07-28T07:17:46Z</time>
      </trkpt>
      <trkpt lat="41.96052" lon="9.22605">
        <ele>1589.63</ele>
        <time>2015-07-28T07:18:04Z</time>
      </trkpt>
      <trkpt lat="41.96063" lon="9.22585">
        <ele>1575.36</ele>
        <time>2015-07-28T07:19:13Z</time>
      </trkpt>
      <trkpt lat="41.96073" lon="9.22565">
        <ele>1575.14</ele>
        <time>2015-07-28T07:19:29Z</time>
      </trkpt>
      <trkpt lat="41.96086" lon="9.22546">
        <ele>1574.61</ele>
        <time>2015-07-28T07:19:43Z</time>
      </trkpt>
      <trkpt lat="41.96101" lon="9.22535">
        <ele>1569.01</ele>
        <time>2015-07-28T07:21:20Z</time>
      </trkpt>
      <trkpt lat="41.96121" lon="9.22536">
        <ele>1567.55</ele>
        <time>2015-07-28T07:22:36Z</time>
      </trkpt>
      <trkpt lat="41.96139" lon="9.22539">
        <ele>1572.12</ele>
        <time>2015-07-28T07:22:52Z</time>
      </trkpt>
      <trkpt lat="41.96155" lon="9.22526">
        <ele>1558.41</ele>
        <time>2015-07-28T07:23:12Z</time>
      </trkpt>
      <trkpt lat="41.96173" lon="9.22522">
        <ele>1549.3</ele>
        <time>2015-07-28T07:23:52Z</time>
      </trkpt>
      <trkpt lat="41.96187" lon="9.22506">
        <ele>1537.72</ele>
        <time>2015-07-28T07:25:16Z</time>
      </trkpt>
      <trkpt lat="41.962" lon="9.22487">
        <ele>1531.35</ele>
        <time>2015-07-28T07:25:34Z</time>
      </trkpt>
      <trkpt lat="41.96212" lon="9.22468">
        <ele>1534.48</ele>
        <time>2015-07-28T07:25:49Z</time>
      </trkpt>
      <trkpt lat="41.96224" lon="9.22447">
        <ele>1538.72</ele>
        <time>2015-07-28T07:26:47Z</time>
      </trkpt>
      <trkpt lat="41.96241" lon="9.22436">
        <ele>1540.45</ele>
        <time>2015-07-28T07:26:57Z</time>
      </trkpt>
      <trkpt lat="41.96259" lon="9.22427">
        <ele>1540.64</ele>
        <time>2015-07-28T07:27:11Z</time>
      </trkpt>
      <trkpt lat="41.96276" lon="9.22435">
        <ele>1543.69</ele>
        <time>2015-07-28T07:27:33Z</time>
      </trkpt>
      <trkpt lat="41.96292" lon="9.22447">
        <ele>1541.4</ele>
        <time>2015-07-28T07:27:51Z</time>
      </trkpt>
      <trkpt lat="41.9631" lon="9.22439">
        <ele>1540.11</ele>
        <time>2015-07-28T07:29:03Z</time>
      </trkpt>
      <trkpt lat="41.9633" lon="9.22426">
        <ele>1537.7</ele>
        <time>2015-07-28T07:29:15Z</time>
      </trkpt>
      <trkpt lat="41.96347" lon="9.2242">
        <ele>1531.28</ele>
        <time>2015-07-28T07:29:56Z</time>
      </trkpt>
      <trkpt lat="41.96364" lon="9.22428">
        <ele>1536.2</ele>
        <time>2015-07-28T07:30:16Z</time>
      </trkpt>
      <trkpt lat="41.96383" lon="9.22425">
        <ele>1541.93</ele>
        <time>2015-07-28T07:31:16Z</time>
      </trkpt>
      <trkpt lat="41.964" lon="9.22414">
        <ele>1527.8</ele>
        <time>2015-07-28T07:31:32Z</time>
      </trkpt>
      <trkpt lat="41.96417" lon="9.22408">
        <ele>1522.69</ele>
        <time>2015-07-28T07:32:03Z</time>
      </trkpt>
      <trkpt lat="41.96435" lon="9.22406">
        <ele>1517.23</ele>
        <time>2015-07-28T07:33:08Z</time>
      </trkpt>
      <trkpt lat="41.96453" lon="9.22409">
        <ele>1515.38</ele>
        <time>2015-07-28T07:33:45Z</time>
      </trkpt>
      <trkpt lat="41.96471" lon="9.22413">
        <ele>1518.55</ele>
        <time>2015-07-28T07:34:00Z</time>
      </trkpt>
      <trkpt lat="41.96488" lon="9.22424">
        <ele>1526.67</ele>
        <time>2015-07-28T07:34:43Z</time>
      </trkpt>
      <trkpt lat="41.96506" lon="9.22422">
        <ele>1519.38</ele>
        <time>2015-07-28T07:35:03Z</time>
      </trkpt>
      <trkpt lat="41.96519" lon="9.22405">
        <ele>1514.13</ele>
        <time>2015-07-28T07:35:24Z</time>
      </trkpt>
      <trkpt lat="41.96535" lon="9.22393">
        <ele>1522.78</ele>
        <time>2015-07-28T07:39:27Z</time>
      </trkpt>
      <trkpt lat="41.96549" lon="9.22377">
        <ele>1524.71</ele>
        <time>2015-07-28T07:40:00Z</time>
      </trkpt>
      <trkpt lat="41.96568" lon="9.22373">
        <ele>1526.69</ele>
        <time>2015-07-28T07:40:28Z</time>
      </trkpt>
      <trkpt lat="41.96582" lon="9.22388">
        <ele>1530.97</ele>
        <time>2015-07-28T07:41:06Z</time>
      </trkpt>
      <trkpt lat="41.966" lon="9.22395">
        <ele>1537.28</ele>
        <time>2015-07-28T07:41:51Z</time>
      </trkpt>
      <trkpt lat="41.96618" lon="9.22392">
        <ele>1540.46</ele>
        <time>2015-07-28T07:42:27Z</time>
      </trkpt>
      <trkpt lat="41.96635" lon="9.22385">
        <ele>1541.72</ele>
        <time>2015-07-28T07:43:26Z</time>
      </trkpt>
      <trkpt lat="41.96654" lon="9.22382">
        <ele>1549.15</ele>
        <time>2015-07-28T07:43:50Z</time>
      </trkpt>
      <trkpt lat="41.96672" lon="9.22382">
        <ele>1553.3</ele>
        <time>2015-07-28T07:44:16Z</time>
      </trkpt>
      <trkpt lat="41.9669" lon="9.22387">
        <ele>1553.45</ele>
        <time>2015-07-28T07:44:40Z</time>
      </trkpt>
      <trkpt lat="41.96707" lon="9.22397">
        <ele>1556.45</ele>
        <time>2015-07-28T07:45:03Z</time>
      </trkpt>
      <trkpt lat="41.96723" lon="9.22407">
        <ele>1558.24</ele>
        <time>2015-07-28T07:45:26Z</time>
      </trkpt>
      <trkpt lat="41.96738" lon="9.22421">
        <ele>1558.54</ele>
        <time>2015-07-28T07:45:47Z</time>
      </trkpt>
      <trkpt lat="41.96755" lon="9.22432">
        <ele>1559.93</ele>
        <time>2015-07-28T07:46:15Z</time>
      </trkpt>
      <trkpt lat="41.96773" lon="9.22434">
        <ele>1564.24</ele>
        <time>2015-07-28T07:46:39Z</time>
      </trkpt>
      <trkpt lat="41.96791" lon="9.22443">
        <ele>1563.09</ele>
        <time>2015-07-28T07:47:02Z</time>
      </trkpt>
      <trkpt lat="41.96809" lon="9.22438">
        <ele>1562.2</ele>
        <time>2015-07-28T07:47:21Z</time>
      </trkpt>
      <trkpt lat="41.96826" lon="9.22446">
        <ele>1567.82</ele>
        <time>2015-07-28T07:47:39Z</time>
      </trkpt>
      <trkpt lat="41.96844" lon="9.22452">
        <ele>1567.53</ele>
        <time>2015-07-28T07:48:11Z</time>
      </trkpt>
      <trkpt lat="41.96864" lon="9.22453">
        <ele>1568.72</ele>
        <time>2015-07-28T07:48:39Z</time>
      </trkpt>
      <trkpt lat="41.96882" lon="9.22458">
        <ele>1569.46</ele>
        <time>2015-07-28T07:48:54Z</time>
      </trkpt>
      <trkpt lat="41.969" lon="9.22457">
        <ele>1576.82</ele>
        <time>2015-07-28T07:49:29Z</time>
      </trkpt>
      <trkpt lat="41.96918" lon="9.22455">
        <ele>1577.71</ele>
        <time>2015-07-28T07:50:04Z</time>
      </trkpt>
      <trkpt lat="41.96936" lon="9.22448">
        <ele>1579.37</ele>
        <time>2015-07-28T07:50:33Z</time>
      </trkpt>
      <trkpt lat="41.96953" lon="9.2244">
        <ele>1589.61</ele>
        <time>2015-07-28T07:51:20Z</time>
      </trkpt>
      <trkpt lat="41.9697" lon="9.22449">
        <ele>1593.41</ele>
        <time>2015-07-28T07:52:04Z</time>
      </trkpt>
      <trkpt lat="41.96988" lon="9.22445">
        <ele>1595.28</ele>
        <time>2015-07-28T07:52:41Z</time>
      </trkpt>
      <trkpt lat="41.97004" lon="9.22458">
        <ele>1593.48</ele>
        <time>2015-07-28T07:53:11Z</time>
      </trkpt>
      <trkpt lat="41.97022" lon="9.2246">
        <ele>1591.2</ele>
        <time>2015-07-28T07:53:41Z</time>
      </trkpt>
      <trkpt lat="41.9704" lon="9.22466">
        <ele>1595.3</ele>
        <time>2015-07-28T07:54:12Z</time>
      </trkpt>
      <trkpt lat="41.97058" lon="9.22469">
        <ele>1595.49</ele>
        <time>2015-07-28T07:54:44Z</time>
      </trkpt>
      <trkpt lat="41.97076" lon="9.2247">
        <ele>1596.7</ele>
        <time>2015-07-28T07:55:24Z</time>
      </trkpt>
      <trkpt lat="41.97095" lon="9.22465">
        <ele>1597.95</ele>
        <time>2015-07-28T07:56:03Z</time>
      </trkpt>
      <trkpt lat="41.97112" lon="9.22458">
        <ele>1602.04</ele>
        <time>2015-07-28T07:56:30Z</time>
      </trkpt>
      <trkpt lat="41.97131" lon="9.22455">
        <ele>1601.59</ele>
        <time>2015-07-28T07:56:54Z</time>
      </trkpt>
      <trkpt lat="41.97149" lon="9.22453">
        <ele>1602.67</ele>
        <time>2015-07-28T07:57:17Z</time>
      </trkpt>
      <trkpt lat="41.97167" lon="9.22444">
        <ele>1602.19</ele>
        <time>2015-07-28T07:57:39Z</time>
      </trkpt>
      <trkpt lat="41.97185" lon="9.22436">
        <ele>1595.69</ele>
        <time>2015-07-28T07:58:11Z</time>
      </trkpt>
      <trkpt lat="41.97202" lon="9.22428">
        <ele>1601.05</ele>
        <time>2015-07-28T07:58:42Z</time>
      </trkpt>
      <trkpt lat="41.97217" lon="9.22415">
        <ele>1606.48</ele>
        <time>2015-07-28T07:59:07Z</time>
      </trkpt>
      <trkpt lat="41.97234" lon="9.22405">
        <ele>1610.77</ele>
        <time>2015-07-28T07:59:33Z</time>
      </trkpt>
      <trkpt lat="41.9725" lon="9.22395">
        <ele>1613.09</ele>
        <time>2015-07-28T08:00:01Z</time>
      </trkpt>
      <trkpt lat="41.97263" lon="9.22377">
        <ele>1625.26</ele>
        <time>2015-07-28T08:00:32Z</time>
      </trkpt>
      <trkpt lat="41.97276" lon="9.22359">
        <ele>1635.93</ele>
        <time>2015-07-28T08:01:07Z</time>
      </trkpt>
      <trkpt lat="41.97293" lon="9.22348">
        <ele>1637.69</ele>
        <time>2015-07-28T08:01:35Z</time>
      </trkpt>
      <trkpt lat="41.97306" lon="9.22331">
        <ele>1642.15</ele>
        <time>2015-07-28T08:01:58Z</time>
      </trkpt>
      <trkpt lat="41.97321" lon="9.22317">
        <ele>1644.46</ele>
        <time>2015-07-28T08:02:19Z</time>
      </trkpt>
      <trkpt lat="41.97335" lon="9.22334">
        <ele>1645.5</ele>
        <time>2015-07-28T08:21:35Z</time>
      </trkpt>
      <trkpt lat="41.97352" lon="9.22322">
        <ele>1643.72</ele>
        <time>2015-07-28T08:21:57Z</time>
      </trkpt>
      <trkpt lat="41.97367" lon="9.22308">
        <ele>1639.01</ele>
        <time>2015-07-28T08:22:57Z</time>
      </trkpt>
      <trkpt lat="41.97382" lon="9.22294">
        <ele>1635.22</ele>
        <time>2015-07-28T08:23:22Z</time>
      </trkpt>
      <trkpt lat="41.97399" lon="9.22281">
        <ele>1636.84</ele>
        <time>2015-07-28T08:23:35Z</time>
      </trkpt>
      <trkpt lat="41.97417" lon="9.22276">
        <ele>1638.69</ele>
        <time>2015-07-28T08:23:49Z</time>
      </trkpt>
      <trkpt lat="41.97425" lon="9.22254">
        <ele>1634.75</ele>
        <time>2015-07-28T08:24:24Z</time>
      </trkpt>
      <trkpt lat="41.97443" lon="9.22248">
        <ele>1637.12</ele>
        <time>2015-07-28T08:24:42Z</time>
      </trkpt>
      <trkpt lat="41.97461" lon="9.22237">
        <ele>1628.84</ele>
        <time>2015-07-28T08:25:33Z</time>
      </trkpt>
      <trkpt lat="41.97477" lon="9.22225">
        <ele>1621.25</ele>
        <time>2015-07-28T08:25:58Z</time>
      </trkpt>
      <trkpt lat="41.97494" lon="9.22219">
        <ele>1624.37</ele>
        <time>2015-07-28T08:26:15Z</time>
      </trkpt>
      <trkpt lat="41.97512" lon="9.22215">
        <ele>1620.03</ele>
        <time>2015-07-28T08:26:33Z</time>
      </trkpt>
      <trkpt lat="41.9753" lon="9.22208">
        <ele>1620.88</ele>
        <time>2015-07-28T08:27:01Z</time>
      </trkpt>
      <trkpt lat="41.97548" lon="9.22201">
        <ele>1621.67</ele>
        <time>2015-07-28T08:27:18Z</time>
      </trkpt>
      <trkpt lat="41.97565" lon="9.2219">
        <ele>1617.2</ele>
        <time>2015-07-28T08:27:36Z</time>
      </trkpt>
      <trkpt lat="41.97582" lon="9.22184">
        <ele>1619.06</ele>
        <time>2015-07-28T08:28:02Z</time>
      </trkpt>
      <trkpt lat="41.976" lon="9.22176">
        <ele>1617.96</ele>
        <time>2015-07-28T08:28:28Z</time>
      </trkpt>
      <trkpt lat="41.97619" lon="9.2217">
        <ele>1614.59</ele>
        <time>2015-07-28T08:28:43Z</time>
      </trkpt>
      <trkpt lat="41.97637" lon="9.22164">
        <ele>1612.51</ele>
        <time>2015-07-28T08:28:59Z</time>
      </trkpt>
      <trkpt lat="41.97653" lon="9.22152">
        <ele>1614.32</ele>
        <time>2015-07-28T08:29:16Z</time>
      </trkpt>
      <trkpt lat="41.97669" lon="9.22141">
        <ele>1612.13</ele>
        <time>2015-07-28T08:29:33Z</time>
      </trkpt>
      <trkpt lat="41.97685" lon="9.22127">
        <ele>1607.84</ele>
        <time>2015-07-28T08:29:50Z</time>
      </trkpt>
      <trkpt lat="41.97701" lon="9.22116">
        <ele>1609.33</ele>
        <time>2015-07-28T08:30:18Z</time>
      </trkpt>
      <trkpt lat="41.97719" lon="9.22107">
        <ele>1608.72</ele>
        <time>2015-07-28T08:30:44Z</time>
      </trkpt>
      <trkpt lat="41.97737" lon="9.22113">
        <ele>1616.27</ele>
        <time>2015-07-28T08:31:02Z</time>
      </trkpt>
      <trkpt lat="41.97754" lon="9.22118">
        <ele>1622.91</ele>
        <time>2015-07-28T08:31:32Z</time>
      </trkpt>
      <trkpt lat="41.97771" lon="9.22128">
        <ele>1622.15</ele>
        <time>2015-07-28T08:32:03Z</time>
      </trkpt>
      <trkpt lat="41.97785" lon="9.22145">
        <ele>1632.29</ele>
        <time>2015-07-28T08:32:34Z</time>
      </trkpt>
      <trkpt lat="41.97802" lon="9.22155">
        <ele>1629.71</ele>
        <time>2015-07-28T08:33:06Z</time>
      </trkpt>
      <trkpt lat="41.9782" lon="9.22153">
        <ele>1633.72</ele>
        <time>2015-07-28T08:33:31Z</time>
      </trkpt>
      <trkpt lat="41.97837" lon="9.22142">
        <ele>1630.12</ele>
        <time>2015-07-28T08:33:51Z</time>
      </trkpt>
      <trkpt lat="41.97854" lon="9.22135">
        <ele>1631.08</ele>
        <time>2015-07-28T08:34:09Z</time>
      </trkpt>
      <trkpt lat="41.97872" lon="9.22128">
        <ele>1631.47</ele>
        <time>2015-07-28T08:34:28Z</time>
      </trkpt>
      <trkpt lat="41.9789" lon="9.22122">
        <ele>1632.72</ele>
        <time>2015-07-28T08:34:59Z</time>
      </trkpt>
      <trkpt lat="41.97908" lon="9.22124">
        <ele>1631.91</ele>
        <time>2015-07-28T08:35:17Z</time>
      </trkpt>
      <trkpt lat="41.97924" lon="9.22112">
        <ele>1635.83</ele>
        <time>2015-07-28T08:35:46Z</time>
      </trkpt>
      <trkpt lat="41.97942" lon="9.22118">
        <ele>1641.83</ele>
        <time>2015-07-28T08:36:14Z</time>
      </trkpt>
      <trkpt lat="41.9796" lon="9.22123">
        <ele>1638.2</ele>
        <time>2015-07-28T08:36:34Z</time>
      </trkpt>
      <trkpt lat="41.97978" lon="9.2213">
        <ele>1639.12</ele>
        <time>2015-07-28T08:36:58Z</time>
      </trkpt>
      <trkpt lat="41.97996" lon="9.22133">
        <ele>1642.45</ele>
        <time>2015-07-28T08:37:31Z</time>
      </trkpt>
      <trkpt lat="41.98014" lon="9.22139">
        <ele>1654.15</ele>
        <time>2015-07-28T08:39:00Z</time>
      </trkpt>
      <trkpt lat="41.98032" lon="9.22145">
        <ele>1661.68</ele>
        <time>2015-07-28T08:39:31Z</time>
      </trkpt>
      <trkpt lat="41.98048" lon="9.22158">
        <ele>1656.92</ele>
        <time>2015-07-28T08:40:05Z</time>
      </trkpt>
      <trkpt lat="41.98066" lon="9.22158">
        <ele>1664.4</ele>
        <time>2015-07-28T08:41:05Z</time>
      </trkpt>
      <trkpt lat="41.98083" lon="9.22147">
        <ele>1671.09</ele>
        <time>2015-07-28T08:41:55Z</time>
      </trkpt>
      <trkpt lat="41.981" lon="9.22139">
        <ele>1681.84</ele>
        <time>2015-07-28T08:43:11Z</time>
      </trkpt>
      <trkpt lat="41.98111" lon="9.22119">
        <ele>1685.78</ele>
        <time>2015-07-28T08:44:18Z</time>
      </trkpt>
      <trkpt lat="41.98122" lon="9.22099">
        <ele>1690.11</ele>
        <time>2015-07-28T08:45:32Z</time>
      </trkpt>
      <trkpt lat="41.98136" lon="9.22085">
        <ele>1696.42</ele>
        <time>2015-07-28T08:46:02Z</time>
      </trkpt>
      <trkpt lat="41.9815" lon="9.22069">
        <ele>1702.79</ele>
        <time>2015-07-28T08:47:30Z</time>
      </trkpt>
      <trkpt lat="41.98157" lon="9.22046">
        <ele>1701.94</ele>
        <time>2015-07-28T08:48:09Z</time>
      </trkpt>
      <trkpt lat="41.98175" lon="9.22051">
        <ele>1690.62</ele>
        <time>2015-07-28T08:49:11Z</time>
      </trkpt>
      <trkpt lat="41.98193" lon="9.22048">
        <ele>1701.36</ele>
        <time>2015-07-28T08:49:43Z</time>
      </trkpt>
      <trkpt lat="41.98203" lon="9.22027">
        <ele>1711.65</ele>
        <time>2015-07-28T08:50:21Z</time>
      </trkpt>
      <trkpt lat="41.98222" lon="9.22027">
        <ele>1697.82</ele>
        <time>2015-07-28T08:52:24Z</time>
      </trkpt>
      <trkpt lat="41.98234" lon="9.22007">
        <ele>1711.81</ele>
        <time>2015-07-28T08:52:46Z</time>
      </trkpt>
      <trkpt lat="41.9825" lon="9.21998">
        <ele>1711.56</ele>
        <time>2015-07-28T08:53:07Z</time>
      </trkpt>
      <trkpt lat="41.98257" lon="9.21975">
        <ele>1712.41</ele>
        <time>2015-07-28T08:53:37Z</time>
      </trkpt>
      <trkpt lat="41.98264" lon="9.21952">
        <ele>1716.47</ele>
        <time>2015-07-28T08:55:09Z</time>
      </trkpt>
      <trkpt lat="41.98277" lon="9.21934">
        <ele>1708.87</ele>
        <time>2015-07-28T08:56:29Z</time>
      </trkpt>
      <trkpt lat="41.98293" lon="9.21945">
        <ele>1696.05</ele>
        <time>2015-07-28T08:57:17Z</time>
      </trkpt>
      <trkpt lat="41.9831" lon="9.21957">
        <ele>1698.87</ele>
        <time>2015-07-28T08:57:40Z</time>
      </trkpt>
      <trkpt lat="41.98328" lon="9.21957">
        <ele>1695.5</ele>
        <time>2015-07-28T08:58:12Z</time>
      </trkpt>
      <trkpt lat="41.98346" lon="9.21953">
        <ele>1696.49</ele>
        <time>2015-07-28T08:58:29Z</time>
      </trkpt>
      <trkpt lat="41.98363" lon="9.21943">
        <ele>1706.44</ele>
        <time>2015-07-28T08:59:52Z</time>
      </trkpt>
      <trkpt lat="41.98375" lon="9.21925">
        <ele>1711.97</ele>
        <time>2015-07-28T09:01:14Z</time>
      </trkpt>
      <trkpt lat="41.98392" lon="9.21917">
        <ele>1710.47</ele>
        <time>2015-07-28T09:02:26Z</time>
      </trkpt>
      <trkpt lat="41.98409" lon="9.21925">
        <ele>1693.09</ele>
        <time>2015-07-28T09:03:05Z</time>
      </trkpt>
      <trkpt lat="41.98427" lon="9.21923">
        <ele>1693.47</ele>
        <time>2015-07-28T09:04:12Z</time>
      </trkpt>
      <trkpt lat="41.98445" lon="9.2192">
        <ele>1703.22</ele>
        <time>2015-07-28T09:04:46Z</time>
      </trkpt>
      <trkpt lat="41.98463" lon="9.21919">
        <ele>1714.02</ele>
        <time>2015-07-28T09:08:36Z</time>
      </trkpt>
      <trkpt lat="41.98483" lon="9.21922">
        <ele>1706.22</ele>
        <time>2015-07-28T09:11:29Z</time>
      </trkpt>
      <trkpt lat="41.98498" lon="9.21906">
        <ele>1703.23</ele>
        <time>2015-07-28T09:13:10Z</time>
      </trkpt>
      <trkpt lat="41.98512" lon="9.21921">
        <ele>1721.47</ele>
        <time>2015-07-28T09:14:57Z</time>
      </trkpt>
      <trkpt lat="41.98522" lon="9.21942">
        <ele>1731.53</ele>
        <time>2015-07-28T09:16:08Z</time>
      </trkpt>
      <trkpt lat="41.98538" lon="9.21956">
        <ele>1748.72</ele>
        <time>2015-07-28T09:18:24Z</time>
      </trkpt>
      <trkpt lat="41.98555" lon="9.21945">
        <ele>1762.12</ele>
        <time>2015-07-28T09:19:23Z</time>
      </trkpt>
      <trkpt lat="41.98561" lon="9.21922">
        <ele>1762.44</ele>
        <time>2015-07-28T09:20:22Z</time>
      </trkpt>
      <trkpt lat="41.98574" lon="9.21905">
        <ele>1758.44</ele>
        <time>2015-07-28T09:22:26Z</time>
      </trkpt>
      <trkpt lat="41.9859" lon="9.21894">
        <ele>1761.54</ele>
        <time>2015-07-28T09:22:47Z</time>
      </trkpt>
      <trkpt lat="41.98609" lon="9.21899">
        <ele>1761.35</ele>
        <time>2015-07-28T09:23:36Z</time>
      </trkpt>
      <trkpt lat="41.98625" lon="9.21887">
        <ele>1771.9</ele>
        <time>2015-07-28T09:24:27Z</time>
      </trkpt>
      <trkpt lat="41.98643" lon="9.21885">
        <ele>1775.33</ele>
        <time>2015-07-28T09:25:55Z</time>
      </trkpt>
      <trkpt lat="41.98661" lon="9.21888">
        <ele>1780.96</ele>
        <time>2015-07-28T09:26:43Z</time>
      </trkpt>
      <trkpt lat="41.98671" lon="9.21908">
        <ele>1795.65</ele>
        <time>2015-07-28T09:28:05Z</time>
      </trkpt>
      <trkpt lat="41.98684" lon="9.21926">
        <ele>1796.33</ele>
        <time>2015-07-28T09:28:42Z</time>
      </trkpt>
      <trkpt lat="41.98702" lon="9.21931">
        <ele>1800.35</ele>
        <time>2015-07-28T09:29:28Z</time>
      </trkpt>
      <trkpt lat="41.98719" lon="9.21934">
        <ele>1804.97</ele>
        <time>2015-07-28T09:30:03Z</time>
      </trkpt>
      <trkpt lat="41.98737" lon="9.21939">
        <ele>1804.01</ele>
        <time>2015-07-28T09:30:36Z</time>
      </trkpt>
      <trkpt lat="41.98754" lon="9.21951">
        <ele>1808.12</ele>
        <time>2015-07-28T09:31:00Z</time>
      </trkpt>
      <trkpt lat="41.98769" lon="9.21963">
        <ele>1806.73</ele>
        <time>2015-07-28T09:31:22Z</time>
      </trkpt>
      <trkpt lat="41.98784" lon="9.21979">
        <ele>1806.74</ele>
        <time>2015-07-28T09:31:51Z</time>
      </trkpt>
      <trkpt lat="41.98801" lon="9.21987">
        <ele>1821.74</ele>
        <time>2015-07-28T09:34:05Z</time>
      </trkpt>
      <trkpt lat="41.98819" lon="9.2198">
        <ele>1831.46</ele>
        <time>2015-07-28T09:34:37Z</time>
      </trkpt>
      <trkpt lat="41.98836" lon="9.21976">
        <ele>1834.22</ele>
        <time>2015-07-28T09:35:30Z</time>
      </trkpt>
      <trkpt lat="41.98854" lon="9.2197">
        <ele>1837.98</ele>
        <time>2015-07-28T09:36:08Z</time>
      </trkpt>
      <trkpt lat="41.9887" lon="9.21958">
        <ele>1838.72</ele>
        <time>2015-07-28T09:36:54Z</time>
      </trkpt>
      <trkpt lat="41.98886" lon="9.21947">
        <ele>1851.21</ele>
        <time>2015-07-28T09:39:02Z</time>
      </trkpt>
      <trkpt lat="41.98905" lon="9.21944">
        <ele>1851.95</ele>
        <time>2015-07-28T09:39:52Z</time>
      </trkpt>
      <trkpt lat="41.98923" lon="9.21943">
        <ele>1850.65</ele>
        <time>2015-07-28T09:40:16Z</time>
      </trkpt>
      <trkpt lat="41.98939" lon="9.21931">
        <ele>1851.17</ele>
        <time>2015-07-28T09:40:37Z</time>
      </trkpt>
      <trkpt lat="41.98955" lon="9.2192">
        <ele>1859</ele>
        <time>2015-07-28T09:42:10Z</time>
      </trkpt>
      <trkpt lat="41.98965" lon="9.21898">
        <ele>1857.75</ele>
        <time>2015-07-28T09:43:30Z</time>
      </trkpt>
      <trkpt lat="41.98979" lon="9.21882">
        <ele>1870.97</ele>
        <time>2015-07-28T09:46:00Z</time>
      </trkpt>
      <trkpt lat="41.98993" lon="9.21867">
        <ele>1888.1</ele>
        <time>2015-07-28T09:46:45Z</time>
      </trkpt>
      <trkpt lat="41.9901" lon="9.21857">
        <ele>1894.13</ele>
        <time>2015-07-28T09:47:42Z</time>
      </trkpt>
      <trkpt lat="41.99026" lon="9.21845">
        <ele>1899.77</ele>
        <time>2015-07-28T09:48:40Z</time>
      </trkpt>
      <trkpt lat="41.99042" lon="9.21834">
        <ele>1896.87</ele>
        <time>2015-07-28T09:49:27Z</time>
      </trkpt>
      <trkpt lat="41.99061" lon="9.21835">
        <ele>1897.52</ele>
        <time>2015-07-28T09:50:06Z</time>
      </trkpt>
      <trkpt lat="41.99076" lon="9.21847">
        <ele>1895.99</ele>
        <time>2015-07-28T09:50:22Z</time>
      </trkpt>
      <trkpt lat="41.99095" lon="9.21851">
        <ele>1895.5</ele>
        <time>2015-07-28T09:50:45Z</time>
      </trkpt>
      <trkpt lat="41.99112" lon="9.2186">
        <ele>1897.94</ele>
        <time>2015-07-28T09:51:11Z</time>
      </trkpt>
      <trkpt lat="41.99128" lon="9.21872">
        <ele>1898.71</ele>
        <time>2015-07-28T09:51:35Z</time>
      </trkpt>
      <trkpt lat="41.99132" lon="9.21896">
        <ele>1862.28</ele>
        <time>2015-07-28T09:51:59Z</time>
      </trkpt>
      <trkpt lat="41.99127" lon="9.2187">
        <ele>1780.09</ele>
        <time>2015-07-28T09:52:15Z</time>
      </trkpt>
      <trkpt lat="41.99123" lon="9.21875">
        <ele>1911.47</ele>
        <time>2015-07-28T09:55:29Z</time>
      </trkpt>
      <trkpt lat="41.99137" lon="9.21858">
        <ele>1900.47</ele>
        <time>2015-07-28T11:28:18Z</time>
      </trkpt>
      <trkpt lat="41.99152" lon="9.21844">
        <ele>1906.44</ele>
        <time>2015-07-28T11:28:44Z</time>
      </trkpt>
      <trkpt lat="41.9917" lon="9.21838">
        <ele>1906.06</ele>
        <time>2015-07-28T11:29:04Z</time>
      </trkpt>
      <trkpt lat="41.99188" lon="9.21829">
        <ele>1906.35</ele>
        <time>2015-07-28T11:29:23Z</time>
      </trkpt>
      <trkpt lat="41.99198" lon="9.21808">
        <ele>1909.52</ele>
        <time>2015-07-28T11:30:07Z</time>
      </trkpt>
      <trkpt lat="41.9921" lon="9.21791">
        <ele>1908.86</ele>
        <time>2015-07-28T11:30:25Z</time>
      </trkpt>
      <trkpt lat="41.99224" lon="9.21775">
        <ele>1913.71</ele>
        <time>2015-07-28T11:30:50Z</time>
      </trkpt>
      <trkpt lat="41.99242" lon="9.21772">
        <ele>1912.49</ele>
        <time>2015-07-28T11:31:11Z</time>
      </trkpt>
      <trkpt lat="41.9926" lon="9.21768">
        <ele>1910.97</ele>
        <time>2015-07-28T11:31:29Z</time>
      </trkpt>
      <trkpt lat="41.99276" lon="9.21755">
        <ele>1911.9</ele>
        <time>2015-07-28T11:31:52Z</time>
      </trkpt>
      <trkpt lat="41.99292" lon="9.21744">
        <ele>1915.62</ele>
        <time>2015-07-28T11:32:21Z</time>
      </trkpt>
      <trkpt lat="41.99306" lon="9.21728">
        <ele>1915.94</ele>
        <time>2015-07-28T11:32:59Z</time>
      </trkpt>
      <trkpt lat="41.99325" lon="9.21731">
        <ele>1917.4</ele>
        <time>2015-07-28T11:33:14Z</time>
      </trkpt>
      <trkpt lat="41.99344" lon="9.21732">
        <ele>1917.24</ele>
        <time>2015-07-28T11:33:30Z</time>
      </trkpt>
      <trkpt lat="41.99362" lon="9.21735">
        <ele>1916.59</ele>
        <time>2015-07-28T11:33:50Z</time>
      </trkpt>
      <trkpt lat="41.99379" lon="9.21744">
        <ele>1917.96</ele>
        <time>2015-07-28T11:34:18Z</time>
      </trkpt>
      <trkpt lat="41.99397" lon="9.21743">
        <ele>1919.84</ele>
        <time>2015-07-28T11:35:06Z</time>
      </trkpt>
      <trkpt lat="41.99411" lon="9.21757">
        <ele>1923.22</ele>
        <time>2015-07-28T11:35:29Z</time>
      </trkpt>
      <trkpt lat="41.99429" lon="9.2176">
        <ele>1928.09</ele>
        <time>2015-07-28T11:36:23Z</time>
      </trkpt>
      <trkpt lat="41.99446" lon="9.2177">
        <ele>1930.53</ele>
        <time>2015-07-28T11:37:01Z</time>
      </trkpt>
      <trkpt lat="41.99464" lon="9.21775">
        <ele>1940.44</ele>
        <time>2015-07-28T11:38:01Z</time>
      </trkpt>
      <trkpt lat="41.99479" lon="9.21788">
        <ele>1943.5</ele>
        <time>2015-07-28T11:39:09Z</time>
      </trkpt>
      <trkpt lat="41.99496" lon="9.21798">
        <ele>1948.34</ele>
        <time>2015-07-28T11:41:51Z</time>
      </trkpt>
      <trkpt lat="41.99512" lon="9.2181">
        <ele>1949.92</ele>
        <time>2015-07-28T11:42:25Z</time>
      </trkpt>
      <trkpt lat="41.99524" lon="9.21792">
        <ele>1955.74</ele>
        <time>2015-07-28T11:43:49Z</time>
      </trkpt>
      <trkpt lat="41.99538" lon="9.21776">
        <ele>1969.34</ele>
        <time>2015-07-28T11:45:35Z</time>
      </trkpt>
      <trkpt lat="41.99557" lon="9.21776">
        <ele>1976.93</ele>
        <time>2015-07-28T11:46:29Z</time>
      </trkpt>
      <trkpt lat="41.99573" lon="9.21788">
        <ele>1982.2</ele>
        <time>2015-07-28T11:47:04Z</time>
      </trkpt>
      <trkpt lat="41.9959" lon="9.21796">
        <ele>1984.7</ele>
        <time>2015-07-28T11:47:40Z</time>
      </trkpt>
      <trkpt lat="41.99607" lon="9.21806">
        <ele>1984.72</ele>
        <time>2015-07-28T11:48:09Z</time>
      </trkpt>
      <trkpt lat="41.99625" lon="9.21809">
        <ele>1991.2</ele>
        <time>2015-07-28T11:49:06Z</time>
      </trkpt>
      <trkpt lat="41.9961" lon="9.21795">
        <ele>1997.9</ele>
        <time>2015-07-28T11:51:53Z</time>
      </trkpt>
      <trkpt lat="41.99603" lon="9.21772">
        <ele>2003.83</ele>
        <time>2015-07-28T11:52:26Z</time>
      </trkpt>
      <trkpt lat="41.99609" lon="9.21748">
        <ele>2011.47</ele>
        <time>2015-07-28T11:54:31Z</time>
      </trkpt>
      <trkpt lat="41.9961" lon="9.21724">
        <ele>2017.47</ele>
        <time>2015-07-28T11:56:38Z</time>
      </trkpt>
      <trkpt lat="41.99608" lon="9.217">
        <ele>2017.6</ele>
        <time>2015-07-28T11:57:31Z</time>
      </trkpt>
      <trkpt lat="41.99609" lon="9.21675">
        <ele>2038.47</ele>
        <time>2015-07-28T12:00:26Z</time>
      </trkpt>
      <trkpt lat="41.99612" lon="9.21699">
        <ele>2038.52</ele>
        <time>2015-07-28T12:07:52Z</time>
      </trkpt>
      <trkpt lat="41.99614" lon="9.21725">
        <ele>2025.72</ele>
        <time>2015-07-28T12:10:27Z</time>
      </trkpt>
      <trkpt lat="41.99614" lon="9.21749">
        <ele>2015.84</ele>
        <time>2015-07-28T12:12:03Z</time>
      </trkpt>
      <trkpt lat="41.99619" lon="9.21772">
        <ele>2013.6</ele>
        <time>2015-07-28T12:12:29Z</time>
      </trkpt>
      <trkpt lat="41.99631" lon="9.21791">
        <ele>2006.6</ele>
        <time>2015-07-28T12:12:57Z</time>
      </trkpt>
      <trkpt lat="41.99645" lon="9.21807">
        <ele>1984.55</ele>
        <time>2015-07-28T12:18:11Z</time>
      </trkpt>
      <trkpt lat="41.99648" lon="9.21783">
        <ele>1992.97</ele>
        <time>2015-07-28T12:19:11Z</time>
      </trkpt>
      <trkpt lat="41.99651" lon="9.21759">
        <ele>1996.46</ele>
        <time>2015-07-28T12:20:04Z</time>
      </trkpt>
      <trkpt lat="41.99657" lon="9.21736">
        <ele>2001.46</ele>
        <time>2015-07-28T12:21:25Z</time>
      </trkpt>
      <trkpt lat="41.99671" lon="9.2172">
        <ele>1997.34</ele>
        <time>2015-07-28T12:22:22Z</time>
      </trkpt>
      <trkpt lat="41.99679" lon="9.21698">
        <ele>1997.25</ele>
        <time>2015-07-28T12:23:04Z</time>
      </trkpt>
      <trkpt lat="41.99693" lon="9.21684">
        <ele>1994.06</ele>
        <time>2015-07-28T12:25:12Z</time>
      </trkpt>
      <trkpt lat="41.99707" lon="9.21667">
        <ele>1989.21</ele>
        <time>2015-07-28T12:26:38Z</time>
      </trkpt>
      <trkpt lat="41.99723" lon="9.21654">
        <ele>1984.54</ele>
        <time>2015-07-28T12:27:28Z</time>
      </trkpt>
      <trkpt lat="41.99738" lon="9.2164">
        <ele>1982.94</ele>
        <time>2015-07-28T12:27:43Z</time>
      </trkpt>
      <trkpt lat="41.99754" lon="9.21631">
        <ele>1978.97</ele>
        <time>2015-07-28T12:29:40Z</time>
      </trkpt>
      <trkpt lat="41.9977" lon="9.21642">
        <ele>1967.04</ele>
        <time>2015-07-28T12:35:52Z</time>
      </trkpt>
      <trkpt lat="41.99789" lon="9.21642">
        <ele>1950.47</ele>
        <time>2015-07-28T12:39:08Z</time>
      </trkpt>
      <trkpt lat="41.99804" lon="9.21629">
        <ele>1952.24</ele>
        <time>2015-07-28T12:40:02Z</time>
      </trkpt>
      <trkpt lat="41.99817" lon="9.21611">
        <ele>1955.09</ele>
        <time>2015-07-28T12:41:11Z</time>
      </trkpt>
      <trkpt lat="41.99834" lon="9.21603">
        <ele>1962.1</ele>
        <time>2015-07-28T12:42:46Z</time>
      </trkpt>
      <trkpt lat="41.99852" lon="9.21595">
        <ele>1957.47</ele>
        <time>2015-07-28T12:44:29Z</time>
      </trkpt>
      <trkpt lat="41.9987" lon="9.21592">
        <ele>1953.33</ele>
        <time>2015-07-28T12:45:09Z</time>
      </trkpt>
      <trkpt lat="41.99888" lon="9.2159">
        <ele>1954.6</ele>
        <time>2015-07-28T12:45:51Z</time>
      </trkpt>
      <trkpt lat="41.99905" lon="9.21594">
        <ele>1960.73</ele>
        <time>2015-07-28T12:46:46Z</time>
      </trkpt>
      <trkpt lat="41.99924" lon="9.21592">
        <ele>1963.6</ele>
        <time>2015-07-28T12:47:55Z</time>
      </trkpt>
      <trkpt lat="41.99942" lon="9.21586">
        <ele>1964.61</ele>
        <time>2015-07-28T12:48:54Z</time>
      </trkpt>
      <trkpt lat="41.99959" lon="9.21578">
        <ele>1971.85</ele>
        <time>2015-07-28T12:50:45Z</time>
      </trkpt>
      <trkpt lat="41.99977" lon="9.21578">
        <ele>1975.89</ele>
        <time>2015-07-28T12:52:25Z</time>
      </trkpt>
      <trkpt lat="41.99991" lon="9.21593">
        <ele>1977.75</ele>
        <time>2015-07-28T12:53:10Z</time>
      </trkpt>
      <trkpt lat="42.00008" lon="9.21603">
        <ele>1979.22</ele>
        <time>2015-07-28T12:53:32Z</time>
      </trkpt>
      <trkpt lat="42.00025" lon="9.21612">
        <ele>1976.97</ele>
        <time>2015-07-28T12:55:01Z</time>
      </trkpt>
      <trkpt lat="42.00042" lon="9.2162">
        <ele>1979.42</ele>
        <time>2015-07-28T12:55:34Z</time>
      </trkpt>
      <trkpt lat="42.0006" lon="9.21618">
        <ele>1980.59</ele>
        <time>2015-07-28T12:59:53Z</time>
      </trkpt>
      <trkpt lat="42.00078" lon="9.21619">
        <ele>1977.45</ele>
        <time>2015-07-28T13:02:18Z</time>
      </trkpt>
      <trkpt lat="42.00095" lon="9.2161">
        <ele>1962.47</ele>
        <time>2015-07-28T13:04:33Z</time>
      </trkpt>
      <trkpt lat="42.00113" lon="9.21604">
        <ele>1948.85</ele>
        <time>2015-07-28T13:05:58Z</time>
      </trkpt>
      <trkpt lat="42.00131" lon="9.21608">
        <ele>1946.47</ele>
        <time>2015-07-28T13:06:46Z</time>
      </trkpt>
      <trkpt lat="42.0015" lon="9.21612">
        <ele>1945.09</ele>
        <time>2015-07-28T13:07:38Z</time>
      </trkpt>
      <trkpt lat="42.00168" lon="9.21612">
        <ele>1944.35</ele>
        <time>2015-07-28T13:08:08Z</time>
      </trkpt>
      <trkpt lat="42.00186" lon="9.21606">
        <ele>1953.85</ele>
        <time>2015-07-28T13:08:29Z</time>
      </trkpt>
      <trkpt lat="42.00203" lon="9.21596">
        <ele>1937.07</ele>
        <time>2015-07-28T13:09:00Z</time>
      </trkpt>
      <trkpt lat="42.00213" lon="9.21576">
        <ele>1944</ele>
        <time>2015-07-28T13:09:43Z</time>
      </trkpt>
      <trkpt lat="42.00212" lon="9.21551">
        <ele>1931.12</ele>
        <time>2015-07-28T13:10:17Z</time>
      </trkpt>
      <trkpt lat="42.00222" lon="9.2153">
        <ele>1926.04</ele>
        <time>2015-07-28T13:10:37Z</time>
      </trkpt>
      <trkpt lat="42.00233" lon="9.2151">
        <ele>1927.46</ele>
        <time>2015-07-28T13:11:01Z</time>
      </trkpt>
      <trkpt lat="42.00247" lon="9.21494">
        <ele>1911.98</ele>
        <time>2015-07-28T13:11:34Z</time>
      </trkpt>
      <trkpt lat="42.00265" lon="9.21493">
        <ele>1901.64</ele>
        <time>2015-07-28T13:12:27Z</time>
      </trkpt>
      <trkpt lat="42.00281" lon="9.21481">
        <ele>1904.22</ele>
        <time>2015-07-28T13:12:50Z</time>
      </trkpt>
      <trkpt lat="42.00294" lon="9.21464">
        <ele>1898.54</ele>
        <time>2015-07-28T13:14:07Z</time>
      </trkpt>
      <trkpt lat="42.00306" lon="9.21446">
        <ele>1885.97</ele>
        <time>2015-07-28T13:14:59Z</time>
      </trkpt>
      <trkpt lat="42.00323" lon="9.21434">
        <ele>1878.47</ele>
        <time>2015-07-28T13:15:32Z</time>
      </trkpt>
      <trkpt lat="42.00341" lon="9.21437">
        <ele>1880.96</ele>
        <time>2015-07-28T13:16:01Z</time>
      </trkpt>
      <trkpt lat="42.00357" lon="9.21425">
        <ele>1868.72</ele>
        <time>2015-07-28T13:16:58Z</time>
      </trkpt>
      <trkpt lat="42.00373" lon="9.21438">
        <ele>1862.23</ele>
        <time>2015-07-28T13:17:43Z</time>
      </trkpt>
      <trkpt lat="42.00391" lon="9.21434">
        <ele>1855.5</ele>
        <time>2015-07-28T13:18:31Z</time>
      </trkpt>
      <trkpt lat="42.00409" lon="9.21427">
        <ele>1852.19</ele>
        <time>2015-07-28T13:19:02Z</time>
      </trkpt>
      <trkpt lat="42.00425" lon="9.21418">
        <ele>1851.82</ele>
        <time>2015-07-28T13:19:21Z</time>
      </trkpt>
      <trkpt lat="42.00439" lon="9.21402">
        <ele>1848.62</ele>
        <time>2015-07-28T13:19:38Z</time>
      </trkpt>
      <trkpt lat="42.00458" lon="9.21403">
        <ele>1844.51</ele>
        <time>2015-07-28T13:19:56Z</time>
      </trkpt>
      <trkpt lat="42.00477" lon="9.21403">
        <ele>1844.28</ele>
        <time>2015-07-28T13:20:12Z</time>
      </trkpt>
      <trkpt lat="42.00495" lon="9.21401">
        <ele>1843.36</ele>
        <time>2015-07-28T13:20:27Z</time>
      </trkpt>
      <trkpt lat="42.00513" lon="9.21397">
        <ele>1713.71</ele>
        <time>2015-07-28T13:20:42Z</time>
      </trkpt>
      <trkpt lat="42.00532" lon="9.21397">
        <ele>1836.01</ele>
        <time>2015-07-28T13:20:59Z</time>
      </trkpt>
      <trkpt lat="42.0055" lon="9.21402">
        <ele>1847.67</ele>
        <time>2015-07-28T13:21:14Z</time>
      </trkpt>
      <trkpt lat="42.00565" lon="9.21415">
        <ele>1845.33</ele>
        <time>2015-07-28T13:21:29Z</time>
      </trkpt>
      <trkpt lat="42.00579" lon="9.21434">
        <ele>1843.9</ele>
        <time>2015-07-28T13:21:46Z</time>
      </trkpt>
      <trkpt lat="42.00594" lon="9.21449">
        <ele>1843.91</ele>
        <time>2015-07-28T13:22:07Z</time>
      </trkpt>
      <trkpt lat="42.0061" lon="9.21459">
        <ele>1842.97</ele>
        <time>2015-07-28T13:22:24Z</time>
      </trkpt>
      <trkpt lat="42.00629" lon="9.21464">
        <ele>1840.6</ele>
        <time>2015-07-28T13:22:52Z</time>
      </trkpt>
      <trkpt lat="42.00647" lon="9.21467">
        <ele>1836.75</ele>
        <time>2015-07-28T13:23:16Z</time>
      </trkpt>
      <trkpt lat="42.00665" lon="9.21476">
        <ele>1830.19</ele>
        <time>2015-07-28T13:23:35Z</time>
      </trkpt>
      <trkpt lat="42.00679" lon="9.21491">
        <ele>1824.69</ele>
        <time>2015-07-28T13:23:56Z</time>
      </trkpt>
      <trkpt lat="42.0069" lon="9.21512">
        <ele>1821.09</ele>
        <time>2015-07-28T13:24:18Z</time>
      </trkpt>
      <trkpt lat="42.00701" lon="9.21532">
        <ele>1816.48</ele>
        <time>2015-07-28T13:24:34Z</time>
      </trkpt>
      <trkpt lat="42.00712" lon="9.21553">
        <ele>1823.64</ele>
        <time>2015-07-28T13:24:53Z</time>
      </trkpt>
      <trkpt lat="42.00724" lon="9.21572">
        <ele>1816.56</ele>
        <time>2015-07-28T13:25:10Z</time>
      </trkpt>
      <trkpt lat="42.00731" lon="9.21595">
        <ele>1817.84</ele>
        <time>2015-07-28T13:25:28Z</time>
      </trkpt>
      <trkpt lat="42.00743" lon="9.21613">
        <ele>1819.78</ele>
        <time>2015-07-28T13:25:45Z</time>
      </trkpt>
      <trkpt lat="42.00755" lon="9.21631">
        <ele>1816.71</ele>
        <time>2015-07-28T13:26:01Z</time>
      </trkpt>
      <trkpt lat="42.00764" lon="9.21653">
        <ele>1815.06</ele>
        <time>2015-07-28T13:26:20Z</time>
      </trkpt>
      <trkpt lat="42.00774" lon="9.21673">
        <ele>1806.31</ele>
        <time>2015-07-28T13:26:38Z</time>
      </trkpt>
      <trkpt lat="42.00785" lon="9.21695">
        <ele>1803.69</ele>
        <time>2015-07-28T13:26:51Z</time>
      </trkpt>
      <trkpt lat="42.00795" lon="9.21717">
        <ele>1802.3</ele>
        <time>2015-07-28T13:27:05Z</time>
      </trkpt>
      <trkpt lat="42.00809" lon="9.21735">
        <ele>1802.46</ele>
        <time>2015-07-28T13:27:21Z</time>
      </trkpt>
      <trkpt lat="42.00822" lon="9.21753">
        <ele>1804.7</ele>
        <time>2015-07-28T13:27:36Z</time>
      </trkpt>
      <trkpt lat="42.00837" lon="9.21768">
        <ele>1805.56</ele>
        <time>2015-07-28T13:28:43Z</time>
      </trkpt>
      <trkpt lat="42.00846" lon="9.2179">
        <ele>1808.09</ele>
        <time>2015-07-28T13:29:00Z</time>
      </trkpt>
      <trkpt lat="42.00854" lon="9.21812">
        <ele>1805.23</ele>
        <time>2015-07-28T13:29:20Z</time>
      </trkpt>
      <trkpt lat="42.00872" lon="9.21807">
        <ele>1813.47</ele>
        <time>2015-07-28T13:50:10Z</time>
      </trkpt>
      <trkpt lat="42.0089" lon="9.21814">
        <ele>1817.78</ele>
        <time>2015-07-28T13:50:33Z</time>
      </trkpt>
      <trkpt lat="42.00908" lon="9.21816">
        <ele>1819.44</ele>
        <time>2015-07-28T13:50:50Z</time>
      </trkpt>
      <trkpt lat="42.00926" lon="9.21824">
        <ele>1823.35</ele>
        <time>2015-07-28T13:51:08Z</time>
      </trkpt>
      <trkpt lat="42.00944" lon="9.21818">
        <ele>1824.45</ele>
        <time>2015-07-28T13:51:47Z</time>
      </trkpt>
      <trkpt lat="42.00961" lon="9.21826">
        <ele>1823.47</ele>
        <time>2015-07-28T13:52:10Z</time>
      </trkpt>
      <trkpt lat="42.00979" lon="9.21829">
        <ele>1824.44</ele>
        <time>2015-07-28T13:52:27Z</time>
      </trkpt>
      <trkpt lat="42.00997" lon="9.21831">
        <ele>1828.16</ele>
        <time>2015-07-28T13:52:47Z</time>
      </trkpt>
      <trkpt lat="42.01014" lon="9.2184">
        <ele>1833.45</ele>
        <time>2015-07-28T13:53:37Z</time>
      </trkpt>
      <trkpt lat="42.01032" lon="9.21849">
        <ele>1840.22</ele>
        <time>2015-07-28T13:54:21Z</time>
      </trkpt>
      <trkpt lat="42.01048" lon="9.21859">
        <ele>1844.49</ele>
        <time>2015-07-28T13:54:59Z</time>
      </trkpt>
      <trkpt lat="42.01065" lon="9.21868">
        <ele>1842.48</ele>
        <time>2015-07-28T13:55:17Z</time>
      </trkpt>
      <trkpt lat="42.01084" lon="9.21871">
        <ele>1849.49</ele>
        <time>2015-07-28T13:55:42Z</time>
      </trkpt>
      <trkpt lat="42.01102" lon="9.21866">
        <ele>1856.02</ele>
        <time>2015-07-28T13:56:02Z</time>
      </trkpt>
      <trkpt lat="42.0112" lon="9.2186">
        <ele>1857.06</ele>
        <time>2015-07-28T13:56:22Z</time>
      </trkpt>
      <trkpt lat="42.01138" lon="9.21858">
        <ele>1850.59</ele>
        <time>2015-07-28T13:56:41Z</time>
      </trkpt>
      <trkpt lat="42.01157" lon="9.21862">
        <ele>1848.74</ele>
        <time>2015-07-28T13:56:58Z</time>
      </trkpt>
      <trkpt lat="42.01175" lon="9.21866">
        <ele>1854.47</ele>
        <time>2015-07-28T13:57:13Z</time>
      </trkpt>
      <trkpt lat="42.01192" lon="9.21875">
        <ele>1878.47</ele>
        <time>2015-07-28T13:57:27Z</time>
      </trkpt>
      <trkpt lat="42.0121" lon="9.2188">
        <ele>1875.46</ele>
        <time>2015-07-28T13:57:43Z</time>
      </trkpt>
      <trkpt lat="42.01228" lon="9.21887">
        <ele>1857.06</ele>
        <time>2015-07-28T13:58:00Z</time>
      </trkpt>
      <trkpt lat="42.01245" lon="9.21897">
        <ele>1851.09</ele>
        <time>2015-07-28T13:58:15Z</time>
      </trkpt>
      <trkpt lat="42.01263" lon="9.21897">
        <ele>1846.46</ele>
        <time>2015-07-28T13:58:36Z</time>
      </trkpt>
      <trkpt lat="42.01282" lon="9.21897">
        <ele>1842.1</ele>
        <time>2015-07-28T13:58:55Z</time>
      </trkpt>
      <trkpt lat="42.013" lon="9.21903">
        <ele>1839.89</ele>
        <time>2015-07-28T13:59:17Z</time>
      </trkpt>
      <trkpt lat="42.01318" lon="9.21906">
        <ele>1835.49</ele>
        <time>2015-07-28T13:59:34Z</time>
      </trkpt>
      <trkpt lat="42.01337" lon="9.21909">
        <ele>1835.55</ele>
        <time>2015-07-28T13:59:52Z</time>
      </trkpt>
      <trkpt lat="42.01355" lon="9.21916">
        <ele>1837.77</ele>
        <time>2015-07-28T14:00:09Z</time>
      </trkpt>
      <trkpt lat="42.01373" lon="9.21923">
        <ele>1835.02</ele>
        <time>2015-07-28T14:00:24Z</time>
      </trkpt>
      <trkpt lat="42.01391" lon="9.21919">
        <ele>1833.97</ele>
        <time>2015-07-28T14:00:40Z</time>
      </trkpt>
      <trkpt lat="42.01407" lon="9.2193">
        <ele>1831.63</ele>
        <time>2015-07-28T14:00:57Z</time>
      </trkpt>
      <trkpt lat="42.01422" lon="9.21943">
        <ele>1831.56</ele>
        <time>2015-07-28T14:01:13Z</time>
      </trkpt>
      <trkpt lat="42.01439" lon="9.21952">
        <ele>1832.63</ele>
        <time>2015-07-28T14:01:27Z</time>
      </trkpt>
      <trkpt lat="42.01457" lon="9.21958">
        <ele>1830.84</ele>
        <time>2015-07-28T14:01:45Z</time>
      </trkpt>
      <trkpt lat="42.01476" lon="9.2196">
        <ele>1831.99</ele>
        <time>2015-07-28T14:02:03Z</time>
      </trkpt>
      <trkpt lat="42.01493" lon="9.21969">
        <ele>1829.02</ele>
        <time>2015-07-28T14:02:19Z</time>
      </trkpt>
      <trkpt lat="42.01511" lon="9.21979">
        <ele>1831.04</ele>
        <time>2015-07-28T14:02:35Z</time>
      </trkpt>
      <trkpt lat="42.01529" lon="9.21986">
        <ele>1830.78</ele>
        <time>2015-07-28T14:02:52Z</time>
      </trkpt>
      <trkpt lat="42.01547" lon="9.21991">
        <ele>1833.47</ele>
        <time>2015-07-28T14:03:15Z</time>
      </trkpt>
      <trkpt lat="42.01564" lon="9.21999">
        <ele>1832.01</ele>
        <time>2015-07-28T14:03:30Z</time>
      </trkpt>
      <trkpt lat="42.01582" lon="9.22007">
        <ele>1830.56</ele>
        <time>2015-07-28T14:03:48Z</time>
      </trkpt>
      <trkpt lat="42.016" lon="9.22009">
        <ele>1834.18</ele>
        <time>2015-07-28T14:04:04Z</time>
      </trkpt>
      <trkpt lat="42.01617" lon="9.22016">
        <ele>1830.59</ele>
        <time>2015-07-28T14:04:23Z</time>
      </trkpt>
      <trkpt lat="42.01635" lon="9.22026">
        <ele>1831.56</ele>
        <time>2015-07-28T14:04:40Z</time>
      </trkpt>
      <trkpt lat="42.01652" lon="9.22032">
        <ele>1832.1</ele>
        <time>2015-07-28T14:04:55Z</time>
      </trkpt>
      <trkpt lat="42.01669" lon="9.22042">
        <ele>1831.13</ele>
        <time>2015-07-28T14:05:09Z</time>
      </trkpt>
      <trkpt lat="42.01686" lon="9.22052">
        <ele>1832.25</ele>
        <time>2015-07-28T14:05:25Z</time>
      </trkpt>
      <trkpt lat="42.01704" lon="9.22056">
        <ele>1831.85</ele>
        <time>2015-07-28T14:05:42Z</time>
      </trkpt>
      <trkpt lat="42.01722" lon="9.22055">
        <ele>1833.24</ele>
        <time>2015-07-28T14:05:57Z</time>
      </trkpt>
      <trkpt lat="42.01741" lon="9.22056">
        <ele>1831.98</ele>
        <time>2015-07-28T14:06:13Z</time>
      </trkpt>
      <trkpt lat="42.01759" lon="9.22056">
        <ele>1831.69</ele>
        <time>2015-07-28T14:06:26Z</time>
      </trkpt>
      <trkpt lat="42.01778" lon="9.22054">
        <ele>1833.21</ele>
        <time>2015-07-28T14:06:40Z</time>
      </trkpt>
      <trkpt lat="42.01796" lon="9.22053">
        <ele>1833.68</ele>
        <time>2015-07-28T14:06:55Z</time>
      </trkpt>
      <trkpt lat="42.01812" lon="9.22041">
        <ele>1834.42</ele>
        <time>2015-07-28T14:07:13Z</time>
      </trkpt>
      <trkpt lat="42.01821" lon="9.22019">
        <ele>1824.34</ele>
        <time>2015-07-28T14:09:39Z</time>
      </trkpt>
      <trkpt lat="42.01833" lon="9.22001">
        <ele>1824.53</ele>
        <time>2015-07-28T14:10:02Z</time>
      </trkpt>
      <trkpt lat="42.01845" lon="9.21982">
        <ele>1822.47</ele>
        <time>2015-07-28T14:10:49Z</time>
      </trkpt>
      <trkpt lat="42.01856" lon="9.21963">
        <ele>1818.48</ele>
        <time>2015-07-28T14:11:25Z</time>
      </trkpt>
      <trkpt lat="42.01861" lon="9.21939">
        <ele>1815.96</ele>
        <time>2015-07-28T14:12:09Z</time>
      </trkpt>
      <trkpt lat="42.01875" lon="9.21923">
        <ele>1828.2</ele>
        <time>2015-07-28T14:12:44Z</time>
      </trkpt>
      <trkpt lat="42.01888" lon="9.21906">
        <ele>1803.53</ele>
        <time>2015-07-28T14:13:37Z</time>
      </trkpt>
      <trkpt lat="42.01873" lon="9.21891">
        <ele>1800.84</ele>
        <time>2015-07-28T14:14:21Z</time>
      </trkpt>
      <trkpt lat="42.01858" lon="9.21878">
        <ele>1793.7</ele>
        <time>2015-07-28T14:15:16Z</time>
      </trkpt>
      <trkpt lat="42.01858" lon="9.21854">
        <ele>1787.73</ele>
        <time>2015-07-28T14:16:19Z</time>
      </trkpt>
      <trkpt lat="42.01859" lon="9.2183">
        <ele>1777.6</ele>
        <time>2015-07-28T14:17:33Z</time>
      </trkpt>
      <trkpt lat="42.01855" lon="9.21805">
        <ele>1772.41</ele>
        <time>2015-07-28T14:18:41Z</time>
      </trkpt>
      <trkpt lat="42.01869" lon="9.21789">
        <ele>1762.29</ele>
        <time>2015-07-28T14:19:38Z</time>
      </trkpt>
      <trkpt lat="42.01881" lon="9.2177">
        <ele>1754.56</ele>
        <time>2015-07-28T14:20:26Z</time>
      </trkpt>
      <trkpt lat="42.01873" lon="9.21747">
        <ele>1745.72</ele>
        <time>2015-07-28T14:21:30Z</time>
      </trkpt>
      <trkpt lat="42.01858" lon="9.21734">
        <ele>1742.03</ele>
        <time>2015-07-28T14:22:17Z</time>
      </trkpt>
      <trkpt lat="42.01847" lon="9.21713">
        <ele>1732.72</ele>
        <time>2015-07-28T14:24:01Z</time>
      </trkpt>
      <trkpt lat="42.0186" lon="9.21695">
        <ele>1726.42</ele>
        <time>2015-07-28T14:24:50Z</time>
      </trkpt>
      <trkpt lat="42.01866" lon="9.21672">
        <ele>1717.72</ele>
        <time>2015-07-28T14:25:25Z</time>
      </trkpt>
      <trkpt lat="42.01872" lon="9.21649">
        <ele>1714.02</ele>
        <time>2015-07-28T14:25:58Z</time>
      </trkpt>
      <trkpt lat="42.01871" lon="9.21624">
        <ele>1706.5</ele>
        <time>2015-07-28T14:27:24Z</time>
      </trkpt>
      <trkpt lat="42.01877" lon="9.21601">
        <ele>1709.63</ele>
        <time>2015-07-28T14:28:08Z</time>
      </trkpt>
      <trkpt lat="42.01888" lon="9.21583">
        <ele>1694.5</ele>
        <time>2015-07-28T14:28:51Z</time>
      </trkpt>
      <trkpt lat="42.01899" lon="9.21562">
        <ele>1684.86</ele>
        <time>2015-07-28T14:29:32Z</time>
      </trkpt>
      <trkpt lat="42.01906" lon="9.2154">
        <ele>1687.63</ele>
        <time>2015-07-28T14:30:01Z</time>
      </trkpt>
      <trkpt lat="42.01912" lon="9.21516">
        <ele>1683.77</ele>
        <time>2015-07-28T14:30:26Z</time>
      </trkpt>
      <trkpt lat="42.01923" lon="9.21496">
        <ele>1676.15</ele>
        <time>2015-07-28T14:30:53Z</time>
      </trkpt>
      <trkpt lat="42.01931" lon="9.21474">
        <ele>1674.86</ele>
        <time>2015-07-28T14:31:26Z</time>
      </trkpt>
      <trkpt lat="42.01937" lon="9.21451">
        <ele>1664.09</ele>
        <time>2015-07-28T14:32:18Z</time>
      </trkpt>
      <trkpt lat="42.01948" lon="9.21431">
        <ele>1661.34</ele>
        <time>2015-07-28T14:32:55Z</time>
      </trkpt>
      <trkpt lat="42.01953" lon="9.21407">
        <ele>1661.78</ele>
        <time>2015-07-28T14:33:32Z</time>
      </trkpt>
      <trkpt lat="42.01958" lon="9.21383">
        <ele>1660.68</ele>
        <time>2015-07-28T14:34:32Z</time>
      </trkpt>
      <trkpt lat="42.01957" lon="9.21358">
        <ele>1652.45</ele>
        <time>2015-07-28T14:35:39Z</time>
      </trkpt>
      <trkpt lat="42.01965" lon="9.21336">
        <ele>1643.21</ele>
        <time>2015-07-28T14:36:00Z</time>
      </trkpt>
      <trkpt lat="42.01978" lon="9.21319">
        <ele>1647</ele>
        <time>2015-07-28T14:36:25Z</time>
      </trkpt>
      <trkpt lat="42.01983" lon="9.21295">
        <ele>1649.04</ele>
        <time>2015-07-28T14:36:48Z</time>
      </trkpt>
      <trkpt lat="42.01983" lon="9.21271">
        <ele>1644.64</ele>
        <time>2015-07-28T14:37:10Z</time>
      </trkpt>
      <trkpt lat="42.01988" lon="9.21247">
        <ele>1644.72</ele>
        <time>2015-07-28T14:37:34Z</time>
      </trkpt>
      <trkpt lat="42.01996" lon="9.21225">
        <ele>1644.93</ele>
        <time>2015-07-28T14:37:59Z</time>
      </trkpt>
      <trkpt lat="42.02012" lon="9.21213">
        <ele>1641.19</ele>
        <time>2015-07-28T14:38:44Z</time>
      </trkpt>
      <trkpt lat="42.02019" lon="9.2119">
        <ele>1638.43</ele>
        <time>2015-07-28T14:39:39Z</time>
      </trkpt>
      <trkpt lat="42.02024" lon="9.21166">
        <ele>1639.57</ele>
        <time>2015-07-28T14:42:21Z</time>
      </trkpt>
      <trkpt lat="42.02031" lon="9.21143">
        <ele>1635.01</ele>
        <time>2015-07-28T14:42:59Z</time>
      </trkpt>
      <trkpt lat="42.02041" lon="9.21123">
        <ele>1634.15</ele>
        <time>2015-07-28T14:43:26Z</time>
      </trkpt>
      <trkpt lat="42.02052" lon="9.21103">
        <ele>1633.45</ele>
        <time>2015-07-28T14:43:49Z</time>
      </trkpt>
      <trkpt lat="42.02064" lon="9.21084">
        <ele>1627.43</ele>
        <time>2015-07-28T14:44:26Z</time>
      </trkpt>
      <trkpt lat="42.02078" lon="9.21068">
        <ele>1625.24</ele>
        <time>2015-07-28T14:44:59Z</time>
      </trkpt>
      <trkpt lat="42.02085" lon="9.21045">
        <ele>1618.66</ele>
        <time>2015-07-28T14:45:33Z</time>
      </trkpt>
      <trkpt lat="42.02095" lon="9.21025">
        <ele>1613.9</ele>
        <time>2015-07-28T14:46:19Z</time>
      </trkpt>
      <trkpt lat="42.02105" lon="9.21004">
        <ele>1606.37</ele>
        <time>2015-07-28T14:46:47Z</time>
      </trkpt>
      <trkpt lat="42.02116" lon="9.20985">
        <ele>1604.7</ele>
        <time>2015-07-28T14:47:22Z</time>
      </trkpt>
      <trkpt lat="42.02126" lon="9.20964">
        <ele>1594.72</ele>
        <time>2015-07-28T14:48:16Z</time>
      </trkpt>
      <trkpt lat="42.02141" lon="9.20951">
        <ele>1586.91</ele>
        <time>2015-07-28T14:48:54Z</time>
      </trkpt>
      <trkpt lat="42.02159" lon="9.20947">
        <ele>1582.92</ele>
        <time>2015-07-28T14:49:57Z</time>
      </trkpt>
      <trkpt lat="42.02175" lon="9.20935">
        <ele>1580.52</ele>
        <time>2015-07-28T14:50:46Z</time>
      </trkpt>
      <trkpt lat="42.02191" lon="9.20921">
        <ele>1574.75</ele>
        <time>2015-07-28T14:51:22Z</time>
      </trkpt>
      <trkpt lat="42.02205" lon="9.20906">
        <ele>1568.47</ele>
        <time>2015-07-28T14:51:56Z</time>
      </trkpt>
      <trkpt lat="42.02221" lon="9.20922">
        <ele>1553.31</ele>
        <time>2015-07-28T14:52:48Z</time>
      </trkpt>
      <trkpt lat="42.02234" lon="9.2094">
        <ele>1548.47</ele>
        <time>2015-07-28T14:53:37Z</time>
      </trkpt>
      <trkpt lat="42.02247" lon="9.20956">
        <ele>1541.7</ele>
        <time>2015-07-28T14:53:53Z</time>
      </trkpt>
      <trkpt lat="42.02261" lon="9.20974">
        <ele>1534.95</ele>
        <time>2015-07-28T14:54:41Z</time>
      </trkpt>
      <trkpt lat="42.02275" lon="9.2099">
        <ele>1535.54</ele>
        <time>2015-07-28T14:55:14Z</time>
      </trkpt>
      <trkpt lat="42.02292" lon="9.21002">
        <ele>1529.47</ele>
        <time>2015-07-28T14:55:46Z</time>
      </trkpt>
      <trkpt lat="42.02309" lon="9.21012">
        <ele>1527.97</ele>
        <time>2015-07-28T14:56:17Z</time>
      </trkpt>
      <trkpt lat="42.02328" lon="9.21013">
        <ele>1528.56</ele>
        <time>2015-07-28T14:56:51Z</time>
      </trkpt>
      <trkpt lat="42.02346" lon="9.21005">
        <ele>1521.32</ele>
        <time>2015-07-28T14:57:26Z</time>
      </trkpt>
      <trkpt lat="42.02363" lon="9.20998">
        <ele>1518.64</ele>
        <time>2015-07-28T14:57:41Z</time>
      </trkpt>
      <trkpt lat="42.02382" lon="9.20992">
        <ele>1520.81</ele>
        <time>2015-07-28T14:58:00Z</time>
      </trkpt>
      <trkpt lat="42.02399" lon="9.20986">
        <ele>1518.76</ele>
        <time>2015-07-28T14:58:30Z</time>
      </trkpt>
      <trkpt lat="42.02419" lon="9.20983">
        <ele>1508.71</ele>
        <time>2015-07-28T14:58:54Z</time>
      </trkpt>
      <trkpt lat="42.02433" lon="9.20998">
        <ele>1501.84</ele>
        <time>2015-07-28T14:59:18Z</time>
      </trkpt>
      <trkpt lat="42.02449" lon="9.2101">
        <ele>1501.28</ele>
        <time>2015-07-28T15:00:00Z</time>
      </trkpt>
      <trkpt lat="42.02467" lon="9.21014">
        <ele>1503.03</ele>
        <time>2015-07-28T15:00:32Z</time>
      </trkpt>
      <trkpt lat="42.02478" lon="9.20995">
        <ele>1504.53</ele>
        <time>2015-07-28T15:00:54Z</time>
      </trkpt>
      <trkpt lat="42.02491" lon="9.20976">
        <ele>1496.16</ele>
        <time>2015-07-28T15:01:26Z</time>
      </trkpt>
      <trkpt lat="42.02507" lon="9.20965">
        <ele>1497.84</ele>
        <time>2015-07-28T15:01:42Z</time>
      </trkpt>
      <trkpt lat="42.02519" lon="9.20946">
        <ele>1495.23</ele>
        <time>2015-07-28T15:02:11Z</time>
      </trkpt>
      <trkpt lat="42.02533" lon="9.2093">
        <ele>1496.02</ele>
        <time>2015-07-28T15:02:32Z</time>
      </trkpt>
      <trkpt lat="42.0255" lon="9.2092">
        <ele>1495.73</ele>
        <time>2015-07-28T15:02:53Z</time>
      </trkpt>
      <trkpt lat="42.02569" lon="9.20913">
        <ele>1494.9</ele>
        <time>2015-07-28T15:03:13Z</time>
      </trkpt>
      <trkpt lat="42.02587" lon="9.20914">
        <ele>1494.61</ele>
        <time>2015-07-28T15:03:34Z</time>
      </trkpt>
      <trkpt lat="42.02586" lon="9.2089">
        <ele>1496.13</ele>
        <time>2015-07-28T15:03:59Z</time>
      </trkpt>
      <trkpt lat="42.02586" lon="9.20865">
        <ele>1486.06</ele>
        <time>2015-07-28T15:04:17Z</time>
      </trkpt>
      <trkpt lat="42.02589" lon="9.20841">
        <ele>1482.66</ele>
        <time>2015-07-28T15:04:30Z</time>
      </trkpt>
      <trkpt lat="42.02603" lon="9.20824">
        <ele>1623.45</ele>
        <time>2015-07-28T15:04:47Z</time>
      </trkpt>
      <trkpt lat="42.02617" lon="9.20809">
        <ele>1598.23</ele>
        <time>2015-07-28T15:05:07Z</time>
      </trkpt>
      <trkpt lat="42.02625" lon="9.20787">
        <ele>1529.84</ele>
        <time>2015-07-28T15:05:24Z</time>
      </trkpt>
      <trkpt lat="42.02637" lon="9.20768">
        <ele>1509.53</ele>
        <time>2015-07-28T15:05:45Z</time>
      </trkpt>
      <trkpt lat="42.02645" lon="9.20746">
        <ele>1510.5</ele>
        <time>2015-07-28T15:06:09Z</time>
      </trkpt>
      <trkpt lat="42.02655" lon="9.20724">
        <ele>1500.7</ele>
        <time>2015-07-28T15:06:24Z</time>
      </trkpt>
      <trkpt lat="42.0267" lon="9.2071">
        <ele>1500.8</ele>
        <time>2015-07-28T15:06:45Z</time>
      </trkpt>
      <trkpt lat="42.02685" lon="9.20697">
        <ele>1496.99</ele>
        <time>2015-07-28T15:07:03Z</time>
      </trkpt>
      <trkpt lat="42.02695" lon="9.20675">
        <ele>1498.35</ele>
        <time>2015-07-28T15:07:20Z</time>
      </trkpt>
      <trkpt lat="42.0271" lon="9.2066">
        <ele>1504.41</ele>
        <time>2015-07-28T15:07:39Z</time>
      </trkpt>
      <trkpt lat="42.02721" lon="9.20641">
        <ele>1512.95</ele>
        <time>2015-07-28T15:08:36Z</time>
      </trkpt>
      <trkpt lat="42.02721" lon="9.20616">
        <ele>1496.4</ele>
        <time>2015-07-28T15:09:07Z</time>
      </trkpt>
      <trkpt lat="42.02713" lon="9.20593">
        <ele>1493.03</ele>
        <time>2015-07-28T15:09:27Z</time>
      </trkpt>
      <trkpt lat="42.02696" lon="9.20585">
        <ele>1490.6</ele>
        <time>2015-07-28T15:09:49Z</time>
      </trkpt>
      <trkpt lat="42.02678" lon="9.20581">
        <ele>1496.65</ele>
        <time>2015-07-28T15:10:14Z</time>
      </trkpt>
      <trkpt lat="42.0266" lon="9.20575">
        <ele>1499.99</ele>
        <time>2015-07-28T15:10:45Z</time>
      </trkpt>
      <trkpt lat="42.02647" lon="9.20558">
        <ele>1504.23</ele>
        <time>2015-07-28T15:11:11Z</time>
      </trkpt>
      <trkpt lat="42.02639" lon="9.20535">
        <ele>1507.22</ele>
        <time>2015-07-28T15:11:33Z</time>
      </trkpt>
      <trkpt lat="42.02631" lon="9.20513">
        <ele>1509.53</ele>
        <time>2015-07-28T15:11:52Z</time>
      </trkpt>
      <trkpt lat="42.02622" lon="9.20491">
        <ele>1508.44</ele>
        <time>2015-07-28T15:12:08Z</time>
      </trkpt>
      <trkpt lat="42.0261" lon="9.20472">
        <ele>1509.54</ele>
        <time>2015-07-28T15:12:25Z</time>
      </trkpt>
      <trkpt lat="42.02618" lon="9.2045">
        <ele>1508.07</ele>
        <time>2015-07-28T15:12:49Z</time>
      </trkpt>
      <trkpt lat="42.02617" lon="9.20425">
        <ele>1509.08</ele>
        <time>2015-07-28T15:13:29Z</time>
      </trkpt>
      <trkpt lat="42.02629" lon="9.20404">
        <ele>1506.15</ele>
        <time>2015-07-28T15:13:54Z</time>
      </trkpt>
      <trkpt lat="42.02635" lon="9.20381">
        <ele>1501.43</ele>
        <time>2015-07-28T15:14:26Z</time>
      </trkpt>
      <trkpt lat="42.02637" lon="9.20356">
        <ele>1496.14</ele>
        <time>2015-07-28T15:14:43Z</time>
      </trkpt>
      <trkpt lat="42.02643" lon="9.20332">
        <ele>1491.48</ele>
        <time>2015-07-28T15:15:08Z</time>
      </trkpt>
      <trkpt lat="42.02649" lon="9.20309">
        <ele>1488.14</ele>
        <time>2015-07-28T15:15:42Z</time>
      </trkpt>
      <trkpt lat="42.02654" lon="9.20285">
        <ele>1482.43</ele>
        <time>2015-07-28T15:16:20Z</time>
      </trkpt>
      <trkpt lat="42.02658" lon="9.20261">
        <ele>1468.54</ele>
        <time>2015-07-28T15:17:08Z</time>
      </trkpt>
      <trkpt lat="42.02669" lon="9.20242">
        <ele>1464.43</ele>
        <time>2015-07-28T15:18:06Z</time>
      </trkpt>
      <trkpt lat="42.02682" lon="9.20224">
        <ele>1458.82</ele>
        <time>2015-07-28T15:18:22Z</time>
      </trkpt>
      <trkpt lat="42.02696" lon="9.20207">
        <ele>1455.17</ele>
        <time>2015-07-28T15:18:39Z</time>
      </trkpt>
      <trkpt lat="42.02703" lon="9.20183">
        <ele>1450.79</ele>
        <time>2015-07-28T15:19:01Z</time>
      </trkpt>
      <trkpt lat="42.02696" lon="9.20161">
        <ele>1452.35</ele>
        <time>2015-07-28T15:19:25Z</time>
      </trkpt>
      <trkpt lat="42.02684" lon="9.20141">
        <ele>1446.31</ele>
        <time>2015-07-28T15:19:40Z</time>
      </trkpt>
      <trkpt lat="42.02683" lon="9.20115">
        <ele>1449.1</ele>
        <time>2015-07-28T15:19:52Z</time>
      </trkpt>
      <trkpt lat="42.02672" lon="9.20094">
        <ele>1442.78</ele>
        <time>2015-07-28T15:20:13Z</time>
      </trkpt>
      <trkpt lat="42.02655" lon="9.20084">
        <ele>1441.98</ele>
        <time>2015-07-28T15:20:34Z</time>
      </trkpt>
      <trkpt lat="42.02637" lon="9.20078">
        <ele>1441.59</ele>
        <time>2015-07-28T15:20:51Z</time>
      </trkpt>
      <trkpt lat="42.02621" lon="9.20066">
        <ele>1435.98</ele>
        <time>2015-07-28T15:21:14Z</time>
      </trkpt>
      <trkpt lat="42.02613" lon="9.20044">
        <ele>1427.46</ele>
        <time>2015-07-28T15:21:50Z</time>
      </trkpt>
      <trkpt lat="42.02601" lon="9.20025">
        <ele>1428.56</ele>
        <time>2015-07-28T15:22:20Z</time>
      </trkpt>
      <trkpt lat="42.02588" lon="9.20008">
        <ele>1420.72</ele>
        <time>2015-07-28T15:23:09Z</time>
      </trkpt>
      <trkpt lat="42.02572" lon="9.19997">
        <ele>1415.4</ele>
        <time>2015-07-28T15:23:28Z</time>
      </trkpt>
      <trkpt lat="42.02557" lon="9.19983">
        <ele>1410.38</ele>
        <time>2015-07-28T15:23:58Z</time>
      </trkpt>
      <trkpt lat="42.02545" lon="9.19964">
        <ele>1403.52</ele>
        <time>2015-07-28T15:25:04Z</time>
      </trkpt>
      <trkpt lat="42.02529" lon="9.1995">
        <ele>1403.22</ele>
        <time>2015-07-28T15:25:44Z</time>
      </trkpt>
      <trkpt lat="42.02511" lon="9.19944">
        <ele>1401.95</ele>
        <time>2015-07-28T15:25:58Z</time>
      </trkpt>
      <trkpt lat="42.02494" lon="9.19935">
        <ele>1388.03</ele>
        <time>2015-07-28T15:26:39Z</time>
      </trkpt>
      <trkpt lat="42.02476" lon="9.19928">
        <ele>1377.04</ele>
        <time>2015-07-28T15:26:57Z</time>
      </trkpt>
      <trkpt lat="42.02459" lon="9.19922">
        <ele>1379.29</ele>
        <time>2015-07-28T15:27:18Z</time>
      </trkpt>
      <trkpt lat="42.0244" lon="9.19921">
        <ele>1380</ele>
        <time>2015-07-28T15:27:45Z</time>
      </trkpt>
      <trkpt lat="42.02424" lon="9.19912">
        <ele>1373.36</ele>
        <time>2015-07-28T15:28:38Z</time>
      </trkpt>
      <trkpt lat="42.02415" lon="9.19889">
        <ele>1359.9</ele>
        <time>2015-07-28T15:28:56Z</time>
      </trkpt>
      <trkpt lat="42.0242" lon="9.19865">
        <ele>1352.51</ele>
        <time>2015-07-28T15:29:29Z</time>
      </trkpt>
      <trkpt lat="42.02422" lon="9.19838">
        <ele>1350.56</ele>
        <time>2015-07-28T15:29:57Z</time>
      </trkpt>
      <trkpt lat="42.02431" lon="9.19817">
        <ele>1338.97</ele>
        <time>2015-07-28T15:30:22Z</time>
      </trkpt>
      <trkpt lat="42.02441" lon="9.19794">
        <ele>1335.84</ele>
        <time>2015-07-28T15:30:45Z</time>
      </trkpt>
      <trkpt lat="42.02458" lon="9.19787">
        <ele>1335.59</ele>
        <time>2015-07-28T15:31:11Z</time>
      </trkpt>
      <trkpt lat="42.02476" lon="9.19777">
        <ele>1335.59</ele>
        <time>2015-07-28T15:31:22Z</time>
      </trkpt>
      <trkpt lat="42.02491" lon="9.19764">
        <ele>1339.75</ele>
        <time>2015-07-28T15:31:35Z</time>
      </trkpt>
      <trkpt lat="42.0251" lon="9.19762">
        <ele>1342.25</ele>
        <time>2015-07-28T15:31:52Z</time>
      </trkpt>
      <trkpt lat="42.02528" lon="9.19756">
        <ele>1345.65</ele>
        <time>2015-07-28T15:32:08Z</time>
      </trkpt>
      <trkpt lat="42.02546" lon="9.19749">
        <ele>1344.84</ele>
        <time>2015-07-28T15:32:22Z</time>
      </trkpt>
      <trkpt lat="42.02562" lon="9.19735">
        <ele>1344.19</ele>
        <time>2015-07-28T15:32:37Z</time>
      </trkpt>
      <trkpt lat="42.02578" lon="9.19723">
        <ele>1342.61</ele>
        <time>2015-07-28T15:32:54Z</time>
      </trkpt>
      <trkpt lat="42.02595" lon="9.19713">
        <ele>1347.09</ele>
        <time>2015-07-28T15:33:10Z</time>
      </trkpt>
      <trkpt lat="42.02611" lon="9.19698">
        <ele>1340.01</ele>
        <time>2015-07-28T15:33:36Z</time>
      </trkpt>
      <trkpt lat="42.02627" lon="9.19684">
        <ele>1330.2</ele>
        <time>2015-07-28T15:33:48Z</time>
      </trkpt>
      <trkpt lat="42.0264" lon="9.19666">
        <ele>1325.47</ele>
        <time>2015-07-28T15:34:02Z</time>
      </trkpt>
      <trkpt lat="42.02654" lon="9.1965">
        <ele>1318.08</ele>
        <time>2015-07-28T15:34:27Z</time>
      </trkpt>
      <trkpt lat="42.02668" lon="9.19633">
        <ele>1321.15</ele>
        <time>2015-07-28T15:34:44Z</time>
      </trkpt>
      <trkpt lat="42.02681" lon="9.19615">
        <ele>1322.35</ele>
        <time>2015-07-28T15:35:03Z</time>
      </trkpt>
      <trkpt lat="42.02696" lon="9.19601">
        <ele>1323.92</ele>
        <time>2015-07-28T15:35:19Z</time>
      </trkpt>
      <trkpt lat="42.02712" lon="9.1959">
        <ele>1323.74</ele>
        <time>2015-07-28T15:35:36Z</time>
      </trkpt>
      <trkpt lat="42.02727" lon="9.19575">
        <ele>1319.23</ele>
        <time>2015-07-28T15:35:56Z</time>
      </trkpt>
      <trkpt lat="42.02743" lon="9.19562">
        <ele>1317.07</ele>
        <time>2015-07-28T15:36:18Z</time>
      </trkpt>
      <trkpt lat="42.02759" lon="9.19548">
        <ele>1309.38</ele>
        <time>2015-07-28T15:36:32Z</time>
      </trkpt>
      <trkpt lat="42.02776" lon="9.19537">
        <ele>1308.17</ele>
        <time>2015-07-28T15:36:47Z</time>
      </trkpt>
      <trkpt lat="42.02789" lon="9.19521">
        <ele>1305.48</ele>
        <time>2015-07-28T15:37:04Z</time>
      </trkpt>
      <trkpt lat="42.02806" lon="9.1951">
        <ele>1303.13</ele>
        <time>2015-07-28T15:37:18Z</time>
      </trkpt>
      <trkpt lat="42.02822" lon="9.195">
        <ele>1315.58</ele>
        <time>2015-07-28T15:37:32Z</time>
      </trkpt>
      <trkpt lat="42.02816" lon="9.19477">
        <ele>1293.3</ele>
        <time>2015-07-28T15:38:18Z</time>
      </trkpt>
      <trkpt lat="42.02803" lon="9.19459">
        <ele>1293.09</ele>
        <time>2015-07-28T15:38:39Z</time>
      </trkpt>
      <trkpt lat="42.02791" lon="9.19441">
        <ele>1283.49</ele>
        <time>2015-07-28T15:39:26Z</time>
      </trkpt>
      <trkpt lat="42.02793" lon="9.19417">
        <ele>1281.72</ele>
        <time>2015-07-28T15:42:10Z</time>
      </trkpt>
      <trkpt lat="42.02782" lon="9.19436">
        <ele>1279.2</ele>
        <time>2015-07-28T15:43:28Z</time>
      </trkpt>
      <trkpt lat="42.02764" lon="9.19437">
        <ele>1274.25</ele>
        <time>2015-07-28T15:44:15Z</time>
      </trkpt>
    </trkseg>
  </trk>
</gpx>